PWSweather.com
Personal Weather Stations
Station Observations
DL5ARK
SonnebergDE

SonnebergDE

Lat: 50.34904861, Lon: 11.18112087

Elevation: 1214

Station Type: Selfmade

http://www.sumbarg.de

High Low Average
Temperature 66.5°F19.2°C 55.7°F13.2°C 59.8°F15.4°C
Dew Point 60.4°F15.8°C 53.1°F11.7°C 57.8°F14.3°C
Winds 15.8 mph 25.4 kmh Calm Calm 4.0 mph SSE6.4 kmh SSE
Wind Gusts 15.9 mph25.6 kmh -- 4.0 mph6.4 kmh
Humidity 82% 66% 75%
Pressure 30.24 in1024.0 mb 30.07 in1018.3 mb -
Precipitation 0.00 in0.0 mm - -
Hour Temp Dew Point Humidity Winds Wind Gusts Pressure Precip Precip Rate Daily Precip Total
12:01 AM 57.9°F14.4°C 53.1°F11.7°C 66% 2.7 mph NE4.3 kmh NE 2.7 mph4.3 kmh 30.23 in1023.7 mb 0.00 in0.0 mm 0.00 in0.0 mm 0.00 in0.0 mm
12:04 AM 57.8°F14.3°C 53.3°F11.8°C 66% 6.5 mph SE10.5 kmh SE 6.5 mph10.5 kmh 30.23 in1023.7 mb 0.00 in0.0 mm 0.00 in0.0 mm 0.00 in0.0 mm
12:10 AM 57.8°F14.3°C 53.4°F11.9°C 67% 5.6 mph ESE9.0 kmh ESE 5.6 mph9.0 kmh 30.23 in1023.7 mb 0.00 in0.0 mm 0.00 in0.0 mm 0.00 in0.0 mm
12:13 AM 57.9°F14.4°C 53.3°F11.8°C 67% 7.7 mph ESE12.4 kmh ESE 7.8 mph12.6 kmh 30.23 in1023.7 mb 0.00 in0.0 mm 0.00 in0.0 mm 0.00 in0.0 mm
12:16 AM 58.0°F14.4°C 53.1°F11.7°C 67% 7.9 mph ESE12.7 kmh ESE 8.0 mph12.9 kmh 30.22 in1023.4 mb 0.00 in0.0 mm 0.00 in0.0 mm 0.00 in0.0 mm
12:19 AM 57.9°F14.4°C 53.2°F11.8°C 67% 4.4 mph ESE7.1 kmh ESE 4.5 mph7.2 kmh 30.23 in1023.7 mb 0.00 in0.0 mm 0.00 in0.0 mm 0.00 in0.0 mm
12:22 AM 57.8°F14.3°C 53.2°F11.8°C 67% 5.0 mph NNW8.0 kmh NNW 5.0 mph8.0 kmh 30.23 in1023.7 mb 0.00 in0.0 mm 0.00 in0.0 mm 0.00 in0.0 mm
12:25 AM 58.0°F14.4°C 53.3°F11.8°C 67% 3.6 mph SE5.8 kmh SE 3.7 mph6.0 kmh 30.23 in1023.7 mb 0.00 in0.0 mm 0.00 in0.0 mm 0.00 in0.0 mm
12:28 AM 58.0°F14.4°C 53.1°F11.7°C 67% 9.7 mph SE15.6 kmh SE 9.8 mph15.8 kmh 30.23 in1023.7 mb 0.00 in0.0 mm 0.00 in0.0 mm 0.00 in0.0 mm
12:31 AM 57.9°F14.4°C 53.4°F11.9°C 68% 6.5 mph SE10.5 kmh SE 6.6 mph10.6 kmh 30.23 in1023.7 mb 0.00 in0.0 mm 0.00 in0.0 mm 0.00 in0.0 mm
12:34 AM 58.1°F14.5°C 53.5°F11.9°C 68% 6.0 mph NNW9.7 kmh NNW 6.0 mph9.7 kmh 30.23 in1023.7 mb 0.00 in0.0 mm 0.00 in0.0 mm 0.00 in0.0 mm
12:37 AM 58.0°F14.4°C 53.3°F11.8°C 68% 8.4 mph ESE13.5 kmh ESE 8.4 mph13.5 kmh 30.23 in1023.7 mb 0.00 in0.0 mm 0.00 in0.0 mm 0.00 in0.0 mm
12:40 AM 58.0°F14.4°C 53.7°F12.1°C 68% 6.5 mph SE10.5 kmh SE 6.5 mph10.5 kmh 30.23 in1023.7 mb 0.00 in0.0 mm 0.00 in0.0 mm 0.00 in0.0 mm
12:43 AM 58.0°F14.4°C 53.6°F12.0°C 68% 1.9 mph SE3.1 kmh SE 2.0 mph3.2 kmh 30.24 in1024.0 mb 0.00 in0.0 mm 0.00 in0.0 mm 0.00 in0.0 mm
12:46 AM 57.9°F14.4°C 53.9°F12.2°C 69% 9.7 mph SE15.6 kmh SE 9.8 mph15.8 kmh 30.24 in1024.0 mb 0.00 in0.0 mm 0.00 in0.0 mm 0.00 in0.0 mm
12:49 AM 57.9°F14.4°C 53.7°F12.1°C 69% 5.6 mph SE9.0 kmh SE 5.7 mph9.2 kmh 30.23 in1023.7 mb 0.00 in0.0 mm 0.00 in0.0 mm 0.00 in0.0 mm
12:52 AM 57.9°F14.4°C 54.1°F12.3°C 69% 5.8 mph NNW9.3 kmh NNW 5.8 mph9.3 kmh 30.23 in1023.7 mb 0.00 in0.0 mm 0.00 in0.0 mm 0.00 in0.0 mm
12:55 AM 57.9°F14.4°C 54.1°F12.3°C 69% 2.7 mph E4.3 kmh E 2.7 mph4.3 kmh 30.23 in1023.7 mb 0.00 in0.0 mm 0.00 in0.0 mm 0.00 in0.0 mm
12:58 AM 57.9°F14.4°C 53.7°F12.1°C 69% 10.7 mph ESE17.2 kmh ESE 10.8 mph17.4 kmh 30.23 in1023.7 mb 0.00 in0.0 mm 0.00 in0.0 mm 0.00 in0.0 mm
01:01 AM 57.8°F14.3°C 54.2°F12.3°C 70% 4.4 mph SE7.1 kmh SE 4.5 mph7.2 kmh 30.23 in1023.7 mb 0.00 in0.0 mm 0.00 in0.0 mm 0.00 in0.0 mm
01:04 AM 57.9°F14.4°C 54.1°F12.3°C 70% 4.1 mph SE6.6 kmh SE 4.1 mph6.6 kmh 30.23 in1023.7 mb 0.00 in0.0 mm 0.00 in0.0 mm 0.00 in0.0 mm
01:07 AM 57.8°F14.3°C 54.0°F12.2°C 70% 2.0 mph E3.2 kmh E 2.0 mph3.2 kmh 30.23 in1023.7 mb 0.00 in0.0 mm 0.00 in0.0 mm 0.00 in0.0 mm
01:10 AM 57.9°F14.4°C 54.0°F12.2°C 70% 5.4 mph NNW8.7 kmh NNW 5.5 mph8.9 kmh 30.23 in1023.7 mb 0.00 in0.0 mm 0.00 in0.0 mm 0.00 in0.0 mm
01:13 AM 57.9°F14.4°C 54.3°F12.4°C 71% 6.9 mph NNW11.1 kmh NNW 7.0 mph11.3 kmh 30.23 in1023.7 mb 0.00 in0.0 mm 0.00 in0.0 mm 0.00 in0.0 mm
01:16 AM 57.9°F14.4°C 54.8°F12.7°C 71% 4.8 mph ESE7.7 kmh ESE 4.9 mph7.9 kmh 30.23 in1023.7 mb 0.00 in0.0 mm 0.00 in0.0 mm 0.00 in0.0 mm
01:19 AM 58.0°F14.4°C 54.6°F12.6°C 71% 1.2 mph NNW1.9 kmh NNW 1.2 mph1.9 kmh 30.23 in1023.7 mb 0.00 in0.0 mm 0.00 in0.0 mm 0.00 in0.0 mm
01:22 AM 57.8°F14.3°C 54.7°F12.6°C 71% 4.9 mph SE7.9 kmh SE 4.9 mph7.9 kmh 30.23 in1023.7 mb 0.00 in0.0 mm 0.00 in0.0 mm 0.00 in0.0 mm
01:25 AM 57.9°F14.4°C 54.7°F12.6°C 71% 5.7 mph ESE9.2 kmh ESE 5.8 mph9.3 kmh 30.23 in1023.7 mb 0.00 in0.0 mm 0.00 in0.0 mm 0.00 in0.0 mm
01:28 AM 57.9°F14.4°C 55.0°F12.8°C 73% 13.1 mph NNW21.1 kmh NNW 13.2 mph21.2 kmh 30.23 in1023.7 mb 0.00 in0.0 mm 0.00 in0.0 mm 0.00 in0.0 mm
01:31 AM 57.7°F14.3°C 54.8°F12.7°C 72% 15.7 mph ESE25.3 kmh ESE 15.7 mph25.3 kmh 30.23 in1023.7 mb 0.00 in0.0 mm 0.00 in0.0 mm 0.00 in0.0 mm
01:34 AM 57.8°F14.3°C 55.0°F12.8°C 73% 7.0 mph NNW11.3 kmh NNW 7.0 mph11.3 kmh 30.23 in1023.7 mb 0.00 in0.0 mm 0.00 in0.0 mm 0.00 in0.0 mm
01:37 AM 57.5°F14.2°C 55.2°F12.9°C 73% 3.6 mph NNW5.8 kmh NNW 3.7 mph6.0 kmh 30.23 in1023.7 mb 0.00 in0.0 mm 0.00 in0.0 mm 0.00 in0.0 mm
01:40 AM 57.4°F14.1°C 55.0°F12.8°C 73% 5.7 mph ESE9.2 kmh ESE 5.7 mph9.2 kmh 30.23 in1023.7 mb 0.00 in0.0 mm 0.00 in0.0 mm 0.00 in0.0 mm
01:43 AM 57.5°F14.2°C 55.1°F12.8°C 73% 1.2 mph NE1.9 kmh NE 1.2 mph1.9 kmh 30.23 in1023.7 mb 0.00 in0.0 mm 0.00 in0.0 mm 0.00 in0.0 mm
01:46 AM 57.5°F14.2°C 54.9°F12.7°C 73% 12.6 mph SE20.3 kmh SE 12.7 mph20.4 kmh 30.23 in1023.7 mb 0.00 in0.0 mm 0.00 in0.0 mm 0.00 in0.0 mm
01:49 AM 57.5°F14.2°C 54.6°F12.6°C 73% 8.9 mph ESE14.3 kmh ESE 9.0 mph14.5 kmh 30.23 in1023.7 mb 0.00 in0.0 mm 0.00 in0.0 mm 0.00 in0.0 mm
01:52 AM 57.3°F14.1°C 55.0°F12.8°C 73% 6.9 mph SE11.1 kmh SE 6.9 mph11.1 kmh 30.22 in1023.4 mb 0.00 in0.0 mm 0.00 in0.0 mm 0.00 in0.0 mm
01:55 AM 57.4°F14.1°C 55.1°F12.8°C 73% 5.3 mph ESE8.5 kmh ESE 5.3 mph8.5 kmh 30.23 in1023.7 mb 0.00 in0.0 mm 0.00 in0.0 mm 0.00 in0.0 mm
01:58 AM 57.4°F14.1°C 54.9°F12.7°C 73% 7.6 mph SE12.2 kmh SE 7.7 mph12.4 kmh 30.22 in1023.4 mb 0.00 in0.0 mm 0.00 in0.0 mm 0.00 in0.0 mm
02:01 AM 57.5°F14.2°C 55.0°F12.8°C 73% 6.1 mph ESE9.8 kmh ESE 6.1 mph9.8 kmh 30.22 in1023.4 mb 0.00 in0.0 mm 0.00 in0.0 mm 0.00 in0.0 mm
02:04 AM 57.3°F14.1°C 54.9°F12.7°C 73% 2.4 mph ESE3.9 kmh ESE 2.4 mph3.9 kmh 30.22 in1023.4 mb 0.00 in0.0 mm 0.00 in0.0 mm 0.00 in0.0 mm
02:07 AM 57.5°F14.2°C 55.1°F12.8°C 73% 7.8 mph SE12.6 kmh SE 7.9 mph12.7 kmh 30.22 in1023.4 mb 0.00 in0.0 mm 0.00 in0.0 mm 0.00 in0.0 mm
02:10 AM 57.4°F14.1°C 55.1°F12.8°C 73% 6.5 mph SE10.5 kmh SE 6.6 mph10.6 kmh 30.22 in1023.4 mb 0.00 in0.0 mm 0.00 in0.0 mm 0.00 in0.0 mm
02:13 AM 57.4°F14.1°C 54.9°F12.7°C 72% 4.4 mph NE7.1 kmh NE 4.5 mph7.2 kmh 30.22 in1023.4 mb 0.00 in0.0 mm 0.00 in0.0 mm 0.00 in0.0 mm
02:16 AM 57.3°F14.1°C 54.9°F12.7°C 72% 2.0 mph ESE3.2 kmh ESE 2.0 mph3.2 kmh 30.21 in1023.0 mb 0.00 in0.0 mm 0.00 in0.0 mm 0.00 in0.0 mm
02:19 AM 57.3°F14.1°C 55.0°F12.8°C 72% 7.3 mph SE11.7 kmh SE 7.3 mph11.7 kmh 30.21 in1023.0 mb 0.00 in0.0 mm 0.00 in0.0 mm 0.00 in0.0 mm
02:22 AM 57.2°F14.0°C 55.0°F12.8°C 73% 2.4 mph E3.9 kmh E 2.4 mph3.9 kmh 30.22 in1023.4 mb 0.00 in0.0 mm 0.00 in0.0 mm 0.00 in0.0 mm
02:25 AM 57.1°F13.9°C 55.0°F12.8°C 72% 2.8 mph SE4.5 kmh SE 2.8 mph4.5 kmh 30.22 in1023.4 mb 0.00 in0.0 mm 0.00 in0.0 mm 0.00 in0.0 mm
02:28 AM 57.0°F13.9°C 55.1°F12.8°C 73% 3.6 mph ESE5.8 kmh ESE 3.6 mph5.8 kmh 30.22 in1023.4 mb 0.00 in0.0 mm 0.00 in0.0 mm 0.00 in0.0 mm
02:31 AM 56.9°F13.8°C 55.0°F12.8°C 73% 1.6 mph ESE2.6 kmh ESE 1.6 mph2.6 kmh 30.22 in1023.4 mb 0.00 in0.0 mm 0.00 in0.0 mm 0.00 in0.0 mm
02:34 AM 56.9°F13.8°C 54.9°F12.7°C 73% 6.0 mph NE9.7 kmh NE 6.0 mph9.7 kmh 30.21 in1023.0 mb 0.00 in0.0 mm 0.00 in0.0 mm 0.00 in0.0 mm
02:37 AM 56.9°F13.8°C 54.9°F12.7°C 74% 3.6 mph NNW5.8 kmh NNW 3.6 mph5.8 kmh 30.22 in1023.4 mb 0.00 in0.0 mm 0.00 in0.0 mm 0.00 in0.0 mm
02:40 AM 56.9°F13.8°C 55.2°F12.9°C 74% 5.7 mph ESE9.2 kmh ESE 5.7 mph9.2 kmh 30.21 in1023.0 mb 0.00 in0.0 mm 0.00 in0.0 mm 0.00 in0.0 mm
02:43 AM 56.8°F13.8°C 55.0°F12.8°C 74% 9.7 mph E15.6 kmh E 9.7 mph15.6 kmh 30.22 in1023.4 mb 0.00 in0.0 mm 0.00 in0.0 mm 0.00 in0.0 mm
02:46 AM 56.9°F13.8°C 54.8°F12.7°C 74% 4.0 mph E6.4 kmh E 4.1 mph6.6 kmh 30.21 in1023.0 mb 0.00 in0.0 mm 0.00 in0.0 mm 0.00 in0.0 mm
02:49 AM 56.9°F13.8°C 55.0°F12.8°C 74% 11.3 mph ESE18.2 kmh ESE 11.4 mph18.3 kmh 30.21 in1023.0 mb 0.00 in0.0 mm 0.00 in0.0 mm 0.00 in0.0 mm
02:52 AM 56.9°F13.8°C 54.9°F12.7°C 75% 6.1 mph SE9.8 kmh SE 6.1 mph9.8 kmh 30.21 in1023.0 mb 0.00 in0.0 mm 0.00 in0.0 mm 0.00 in0.0 mm
02:55 AM 56.6°F13.7°C 55.0°F12.8°C 75% 4.8 mph SE7.7 kmh SE 4.9 mph7.9 kmh 30.21 in1023.0 mb 0.00 in0.0 mm 0.00 in0.0 mm 0.00 in0.0 mm
02:58 AM 56.6°F13.7°C 55.0°F12.8°C 74% 8.9 mph ESE14.3 kmh ESE 9.0 mph14.5 kmh 30.22 in1023.4 mb 0.00 in0.0 mm 0.00 in0.0 mm 0.00 in0.0 mm
03:01 AM 56.6°F13.7°C 55.2°F12.9°C 75% 6.8 mph ESE10.9 kmh ESE 6.8 mph10.9 kmh 30.22 in1023.4 mb 0.00 in0.0 mm 0.00 in0.0 mm 0.00 in0.0 mm
03:04 AM 56.8°F13.8°C 55.1°F12.8°C 76% 6.9 mph ESE11.1 kmh ESE 6.9 mph11.1 kmh 30.22 in1023.4 mb 0.00 in0.0 mm 0.00 in0.0 mm 0.00 in0.0 mm
03:07 AM 56.8°F13.8°C 55.2°F12.9°C 75% 6.8 mph SE10.9 kmh SE 6.9 mph11.1 kmh 30.22 in1023.4 mb 0.00 in0.0 mm 0.00 in0.0 mm 0.00 in0.0 mm
03:10 AM 56.9°F13.8°C 54.9°F12.7°C 75% 5.7 mph SE9.2 kmh SE 5.7 mph9.2 kmh 30.22 in1023.4 mb 0.00 in0.0 mm 0.00 in0.0 mm 0.00 in0.0 mm
03:13 AM 56.8°F13.8°C 55.1°F12.8°C 76% 8.9 mph ESE14.3 kmh ESE 9.0 mph14.5 kmh 30.22 in1023.4 mb 0.00 in0.0 mm 0.00 in0.0 mm 0.00 in0.0 mm
03:16 AM 56.6°F13.7°C 55.1°F12.8°C 76% 5.7 mph SE9.2 kmh SE 5.7 mph9.2 kmh 30.22 in1023.4 mb 0.00 in0.0 mm 0.00 in0.0 mm 0.00 in0.0 mm
03:19 AM 56.6°F13.7°C 54.7°F12.6°C 74% 3.1 mph ESE5.0 kmh ESE 3.1 mph5.0 kmh 30.22 in1023.4 mb 0.00 in0.0 mm 0.00 in0.0 mm 0.00 in0.0 mm
03:22 AM 56.6°F13.7°C 55.0°F12.8°C 76% 7.9 mph SE12.7 kmh SE 7.9 mph12.7 kmh 30.22 in1023.4 mb 0.00 in0.0 mm 0.00 in0.0 mm 0.00 in0.0 mm
03:25 AM 56.5°F13.6°C 55.1°F12.8°C 76% 5.6 mph ESE9.0 kmh ESE 5.6 mph9.0 kmh 30.21 in1023.0 mb 0.00 in0.0 mm 0.00 in0.0 mm 0.00 in0.0 mm
03:28 AM 56.4°F13.6°C 54.9°F12.7°C 75% 5.6 mph ESE9.0 kmh ESE 5.7 mph9.2 kmh 30.21 in1023.0 mb 0.00 in0.0 mm 0.00 in0.0 mm 0.00 in0.0 mm
03:31 AM 56.4°F13.6°C 55.2°F12.9°C 75% 0.4 mph E0.6 kmh E 0.4 mph0.6 kmh 30.21 in1023.0 mb 0.00 in0.0 mm 0.00 in0.0 mm 0.00 in0.0 mm
03:34 AM 56.6°F13.7°C 55.2°F12.9°C 76% 6.5 mph SE10.5 kmh SE 6.5 mph10.5 kmh 30.21 in1023.0 mb 0.00 in0.0 mm 0.00 in0.0 mm 0.00 in0.0 mm
03:37 AM 56.6°F13.7°C 55.3°F12.9°C 76% 10.3 mph NNW16.6 kmh NNW 10.3 mph16.6 kmh 30.21 in1023.0 mb 0.00 in0.0 mm 0.00 in0.0 mm 0.00 in0.0 mm
03:40 AM 56.6°F13.7°C 55.4°F13.0°C 76% 8.1 mph SE13.0 kmh SE 8.1 mph13.0 kmh 30.21 in1023.0 mb 0.00 in0.0 mm 0.00 in0.0 mm 0.00 in0.0 mm
03:43 AM 56.6°F13.7°C 55.3°F12.9°C 77% 8.1 mph ESE13.0 kmh ESE 8.1 mph13.0 kmh 30.21 in1023.0 mb 0.00 in0.0 mm 0.00 in0.0 mm 0.00 in0.0 mm
03:46 AM 56.6°F13.7°C 55.5°F13.1°C 76% 5.2 mph SE8.4 kmh SE 5.3 mph8.5 kmh 30.21 in1023.0 mb 0.00 in0.0 mm 0.00 in0.0 mm 0.00 in0.0 mm
03:49 AM 56.6°F13.7°C 55.6°F13.1°C 77% 2.0 mph NNW3.2 kmh NNW 2.0 mph3.2 kmh 30.21 in1023.0 mb 0.00 in0.0 mm 0.00 in0.0 mm 0.00 in0.0 mm
03:52 AM 56.5°F13.6°C 55.6°F13.1°C 76% 1.2 mph NNW1.9 kmh NNW 1.2 mph1.9 kmh 30.20 in1022.7 mb 0.00 in0.0 mm 0.00 in0.0 mm 0.00 in0.0 mm
03:55 AM 56.5°F13.6°C 55.6°F13.1°C 77% 2.8 mph NE4.5 kmh NE 2.8 mph4.5 kmh 30.20 in1022.7 mb 0.00 in0.0 mm 0.00 in0.0 mm 0.00 in0.0 mm
03:58 AM 56.5°F13.6°C 55.7°F13.2°C 76% 5.4 mph ESE8.7 kmh ESE 5.4 mph8.7 kmh 30.20 in1022.7 mb 0.00 in0.0 mm 0.00 in0.0 mm 0.00 in0.0 mm
04:01 AM 56.5°F13.6°C 55.6°F13.1°C 77% 8.6 mph NNW13.8 kmh NNW 8.6 mph13.8 kmh 30.20 in1022.7 mb 0.00 in0.0 mm 0.00 in0.0 mm 0.00 in0.0 mm
04:04 AM 56.4°F13.6°C 55.9°F13.3°C 77% 4.9 mph SE7.9 kmh SE 4.9 mph7.9 kmh 30.20 in1022.7 mb 0.00 in0.0 mm 0.00 in0.0 mm 0.00 in0.0 mm
04:10 AM 56.4°F13.6°C 55.6°F13.1°C 78% 2.4 mph SSE3.9 kmh SSE 2.4 mph3.9 kmh 30.20 in1022.7 mb 0.00 in0.0 mm 0.00 in0.0 mm 0.00 in0.0 mm
04:13 AM 56.3°F13.5°C 55.8°F13.2°C 79% 7.5 mph ESE12.1 kmh ESE 7.6 mph12.2 kmh 30.20 in1022.7 mb 0.00 in0.0 mm 0.00 in0.0 mm 0.00 in0.0 mm
04:16 AM 56.2°F13.4°C 55.7°F13.2°C 79% 12.5 mph SE20.1 kmh SE 12.6 mph20.3 kmh 30.20 in1022.7 mb 0.00 in0.0 mm 0.00 in0.0 mm 0.00 in0.0 mm
04:19 AM 56.1°F13.4°C 55.7°F13.2°C 79% 11.3 mph SE18.2 kmh SE 11.4 mph18.3 kmh 30.20 in1022.7 mb 0.00 in0.0 mm 0.00 in0.0 mm 0.00 in0.0 mm
04:22 AM 56.1°F13.4°C 56.1°F13.4°C 79% 1.2 mph NNW1.9 kmh NNW 1.2 mph1.9 kmh 30.20 in1022.7 mb 0.00 in0.0 mm 0.00 in0.0 mm 0.00 in0.0 mm
04:25 AM 56.1°F13.4°C 55.8°F13.2°C 79% 5.2 mph E8.4 kmh E 5.3 mph8.5 kmh 30.20 in1022.7 mb 0.00 in0.0 mm 0.00 in0.0 mm 0.00 in0.0 mm
04:28 AM 56.0°F13.3°C 55.9°F13.3°C 79% 2.8 mph NNE4.5 kmh NNE 2.9 mph4.7 kmh 30.20 in1022.7 mb 0.00 in0.0 mm 0.00 in0.0 mm 0.00 in0.0 mm
04:31 AM 56.1°F13.4°C 55.9°F13.3°C 79% 7.3 mph ESE11.7 kmh ESE 7.3 mph11.7 kmh 30.20 in1022.7 mb 0.00 in0.0 mm 0.00 in0.0 mm 0.00 in0.0 mm
04:34 AM 56.1°F13.4°C 55.8°F13.2°C 79% 6.9 mph NNW11.1 kmh NNW 6.9 mph11.1 kmh 30.20 in1022.7 mb 0.00 in0.0 mm 0.00 in0.0 mm 0.00 in0.0 mm
04:37 AM 56.1°F13.4°C 56.0°F13.3°C 80% 5.6 mph NE9.0 kmh NE 5.6 mph9.0 kmh 30.20 in1022.7 mb 0.00 in0.0 mm 0.00 in0.0 mm 0.00 in0.0 mm
04:40 AM 56.1°F13.4°C 55.7°F13.2°C 79% 5.2 mph NE8.4 kmh NE 5.2 mph8.4 kmh 30.20 in1022.7 mb 0.00 in0.0 mm 0.00 in0.0 mm 0.00 in0.0 mm
04:43 AM 56.2°F13.4°C 55.9°F13.3°C 79% 9.6 mph NNW15.4 kmh NNW 9.6 mph15.4 kmh 30.20 in1022.7 mb 0.00 in0.0 mm 0.00 in0.0 mm 0.00 in0.0 mm
04:46 AM 56.1°F13.4°C 56.2°F13.4°C 79% 2.0 mph E3.2 kmh E 2.0 mph3.2 kmh 30.20 in1022.7 mb 0.00 in0.0 mm 0.00 in0.0 mm 0.00 in0.0 mm
04:49 AM 56.1°F13.4°C 56.0°F13.3°C 79% 3.6 mph E5.8 kmh E 3.6 mph5.8 kmh 30.20 in1022.7 mb 0.00 in0.0 mm 0.00 in0.0 mm 0.00 in0.0 mm
04:52 AM 56.2°F13.4°C 55.8°F13.2°C 80% 11.2 mph NNW18.0 kmh NNW 11.3 mph18.2 kmh 30.20 in1022.7 mb 0.00 in0.0 mm 0.00 in0.0 mm 0.00 in0.0 mm
04:55 AM 56.2°F13.4°C 55.8°F13.2°C 79% 2.8 mph E4.5 kmh E 2.9 mph4.7 kmh 30.20 in1022.7 mb 0.00 in0.0 mm 0.00 in0.0 mm 0.00 in0.0 mm
04:58 AM 56.1°F13.4°C 55.9°F13.3°C 79% 2.0 mph E3.2 kmh E 2.0 mph3.2 kmh 30.20 in1022.7 mb 0.00 in0.0 mm 0.00 in0.0 mm 0.00 in0.0 mm
05:01 AM 56.1°F13.4°C 56.1°F13.4°C 79% 4.4 mph NE7.1 kmh NE 4.5 mph7.2 kmh 30.20 in1022.7 mb 0.00 in0.0 mm 0.00 in0.0 mm 0.00 in0.0 mm
05:04 AM 56.1°F13.4°C 56.0°F13.3°C 79% 7.9 mph ESE12.7 kmh ESE 8.0 mph12.9 kmh 30.20 in1022.7 mb 0.00 in0.0 mm 0.00 in0.0 mm 0.00 in0.0 mm
05:07 AM 56.0°F13.3°C 56.0°F13.3°C 79% 3.4 mph ENE5.5 kmh ENE 3.4 mph5.5 kmh 30.19 in1022.4 mb 0.00 in0.0 mm 0.00 in0.0 mm 0.00 in0.0 mm
05:13 AM 56.0°F13.3°C 56.0°F13.3°C 79% 9.0 mph SE14.5 kmh SE 9.0 mph14.5 kmh 30.19 in1022.4 mb 0.00 in0.0 mm 0.00 in0.0 mm 0.00 in0.0 mm
05:16 AM 56.0°F13.3°C 55.8°F13.2°C 79% 10.5 mph SE16.9 kmh SE 10.6 mph17.1 kmh 30.19 in1022.4 mb 0.00 in0.0 mm 0.00 in0.0 mm 0.00 in0.0 mm
05:19 AM 56.0°F13.3°C 55.9°F13.3°C 79% 3.1 mph ENE5.0 kmh ENE 3.1 mph5.0 kmh 30.19 in1022.4 mb 0.00 in0.0 mm 0.00 in0.0 mm 0.00 in0.0 mm
05:22 AM 56.0°F13.3°C 55.9°F13.3°C 79% 2.8 mph NE4.5 kmh NE 2.8 mph4.5 kmh 30.19 in1022.4 mb 0.00 in0.0 mm 0.00 in0.0 mm 0.00 in0.0 mm
05:25 AM 56.0°F13.3°C 55.8°F13.2°C 79% 4.5 mph E7.2 kmh E 4.9 mph7.9 kmh 30.19 in1022.4 mb 0.00 in0.0 mm 0.00 in0.0 mm 0.00 in0.0 mm
05:28 AM 56.0°F13.3°C 56.1°F13.4°C 79% 3.6 mph NNW5.8 kmh NNW 3.7 mph6.0 kmh 30.19 in1022.4 mb 0.00 in0.0 mm 0.00 in0.0 mm 0.00 in0.0 mm
05:31 AM 56.0°F13.3°C 55.9°F13.3°C 80% 4.4 mph NNE7.1 kmh NNE 4.4 mph7.1 kmh 30.19 in1022.4 mb 0.00 in0.0 mm 0.00 in0.0 mm 0.00 in0.0 mm
05:34 AM 55.9°F13.3°C 55.9°F13.3°C 79% 1.6 mph E2.6 kmh E 1.6 mph2.6 kmh 30.19 in1022.4 mb 0.00 in0.0 mm 0.00 in0.0 mm 0.00 in0.0 mm
05:37 AM 55.9°F13.3°C 56.0°F13.3°C 79% 7.3 mph ESE11.7 kmh ESE 7.3 mph11.7 kmh 30.19 in1022.4 mb 0.00 in0.0 mm 0.00 in0.0 mm 0.00 in0.0 mm
05:40 AM 55.9°F13.3°C 55.7°F13.2°C 79% 8.0 mph ESE12.9 kmh ESE 8.0 mph12.9 kmh 30.19 in1022.4 mb 0.00 in0.0 mm 0.00 in0.0 mm 0.00 in0.0 mm
05:46 AM 55.9°F13.3°C 55.7°F13.2°C 79% 5.7 mph NE9.2 kmh NE 5.7 mph9.2 kmh 30.18 in1022.0 mb 0.00 in0.0 mm 0.00 in0.0 mm 0.00 in0.0 mm
05:49 AM 55.9°F13.3°C 55.8°F13.2°C 80% 7.6 mph E12.2 kmh E 7.6 mph12.2 kmh 30.18 in1022.0 mb 0.00 in0.0 mm 0.00 in0.0 mm 0.00 in0.0 mm
05:52 AM 55.7°F13.2°C 55.9°F13.3°C 79% 0.8 mph NE1.3 kmh NE 0.8 mph1.3 kmh 30.18 in1022.0 mb 0.00 in0.0 mm 0.00 in0.0 mm 0.00 in0.0 mm
05:55 AM 55.7°F13.2°C 55.6°F13.1°C 79% 4.9 mph NNE7.9 kmh NNE 4.9 mph7.9 kmh 30.19 in1022.4 mb 0.00 in0.0 mm 0.00 in0.0 mm 0.00 in0.0 mm
05:58 AM 55.7°F13.2°C 55.6°F13.1°C 79% 2.8 mph E4.5 kmh E 2.8 mph4.5 kmh 30.19 in1022.4 mb 0.00 in0.0 mm 0.00 in0.0 mm 0.00 in0.0 mm
06:01 AM 55.7°F13.2°C 56.0°F13.3°C 80% 2.0 mph E3.2 kmh E 2.0 mph3.2 kmh 30.18 in1022.0 mb 0.00 in0.0 mm 0.00 in0.0 mm 0.00 in0.0 mm
06:04 AM 55.7°F13.2°C 56.0°F13.3°C 80% 1.6 mph NE2.6 kmh NE 1.6 mph2.6 kmh 30.19 in1022.4 mb 0.00 in0.0 mm 0.00 in0.0 mm 0.00 in0.0 mm
06:07 AM 55.7°F13.2°C 55.8°F13.2°C 80% 2.6 mph ESE4.2 kmh ESE 2.8 mph4.5 kmh 30.19 in1022.4 mb 0.00 in0.0 mm 0.00 in0.0 mm 0.00 in0.0 mm
06:10 AM 55.9°F13.3°C 55.8°F13.2°C 80% 4.9 mph ENE7.9 kmh ENE 4.9 mph7.9 kmh 30.18 in1022.0 mb 0.00 in0.0 mm 0.00 in0.0 mm 0.00 in0.0 mm
06:13 AM 55.9°F13.3°C 55.9°F13.3°C 80% 8.1 mph ESE13.0 kmh ESE 8.2 mph13.2 kmh 30.19 in1022.4 mb 0.00 in0.0 mm 0.00 in0.0 mm 0.00 in0.0 mm
06:19 AM 56.0°F13.3°C 55.7°F13.2°C 80% 3.6 mph NE5.8 kmh NE 3.7 mph6.0 kmh 30.19 in1022.4 mb 0.00 in0.0 mm 0.00 in0.0 mm 0.00 in0.0 mm
06:22 AM 55.9°F13.3°C 55.7°F13.2°C 79% Calm Calm -- 30.19 in1022.4 mb 0.00 in0.0 mm 0.00 in0.0 mm 0.00 in0.0 mm
06:25 AM 56.0°F13.3°C 55.8°F13.2°C 80% 10.8 mph SE17.4 kmh SE 10.9 mph17.5 kmh 30.19 in1022.4 mb 0.00 in0.0 mm 0.00 in0.0 mm 0.00 in0.0 mm
06:28 AM 56.1°F13.4°C 56.3°F13.5°C 80% 9.9 mph SE15.9 kmh SE 9.9 mph15.9 kmh 30.19 in1022.4 mb 0.00 in0.0 mm 0.00 in0.0 mm 0.00 in0.0 mm
06:31 AM 56.3°F13.5°C 56.1°F13.4°C 80% 1.2 mph NNW1.9 kmh NNW 1.2 mph1.9 kmh 30.19 in1022.4 mb 0.00 in0.0 mm 0.00 in0.0 mm 0.00 in0.0 mm
06:34 AM 56.2°F13.4°C 56.1°F13.4°C 80% 6.8 mph SE10.9 kmh SE 6.8 mph10.9 kmh 30.19 in1022.4 mb 0.00 in0.0 mm 0.00 in0.0 mm 0.00 in0.0 mm
06:37 AM 55.7°F13.2°C 55.9°F13.3°C 80% 3.4 mph NNW5.5 kmh NNW 3.5 mph5.6 kmh 30.19 in1022.4 mb 0.00 in0.0 mm 0.00 in0.0 mm 0.00 in0.0 mm
06:40 AM 55.7°F13.2°C 56.3°F13.5°C 80% 2.8 mph NNW4.5 kmh NNW 2.9 mph4.7 kmh 30.19 in1022.4 mb 0.00 in0.0 mm 0.00 in0.0 mm 0.00 in0.0 mm
06:43 AM 55.9°F13.3°C 55.8°F13.2°C 80% 1.6 mph SE2.6 kmh SE 1.6 mph2.6 kmh 30.19 in1022.4 mb 0.00 in0.0 mm 0.00 in0.0 mm 0.00 in0.0 mm
06:46 AM 56.3°F13.5°C 56.1°F13.4°C 80% 2.0 mph SE3.2 kmh SE 2.0 mph3.2 kmh 30.19 in1022.4 mb 0.00 in0.0 mm 0.00 in0.0 mm 0.00 in0.0 mm
06:49 AM 56.4°F13.6°C 55.9°F13.3°C 80% 5.2 mph ESE8.4 kmh ESE 5.2 mph8.4 kmh 30.19 in1022.4 mb 0.00 in0.0 mm 0.00 in0.0 mm 0.00 in0.0 mm
06:52 AM 56.6°F13.7°C 56.2°F13.4°C 80% 1.9 mph SE3.1 kmh SE 2.0 mph3.2 kmh 30.19 in1022.4 mb 0.00 in0.0 mm 0.00 in0.0 mm 0.00 in0.0 mm
06:55 AM 56.6°F13.7°C 55.9°F13.3°C 80% 5.2 mph NNW8.4 kmh NNW 5.3 mph8.5 kmh 30.19 in1022.4 mb 0.00 in0.0 mm 0.00 in0.0 mm 0.00 in0.0 mm
06:58 AM 56.5°F13.6°C 55.9°F13.3°C 80% 0.8 mph E1.3 kmh E 0.8 mph1.3 kmh 30.19 in1022.4 mb 0.00 in0.0 mm 0.00 in0.0 mm 0.00 in0.0 mm
07:01 AM 56.9°F13.8°C 56.2°F13.4°C 81% 4.0 mph SE6.4 kmh SE 4.1 mph6.6 kmh 30.19 in1022.4 mb 0.00 in0.0 mm 0.00 in0.0 mm 0.00 in0.0 mm
07:04 AM 57.1°F13.9°C 56.3°F13.5°C 80% 3.5 mph NNW5.6 kmh NNW 3.5 mph5.6 kmh 30.19 in1022.4 mb 0.00 in0.0 mm 0.00 in0.0 mm 0.00 in0.0 mm
07:07 AM 56.9°F13.8°C 55.9°F13.3°C 79% 7.6 mph NNW12.2 kmh NNW 7.6 mph12.2 kmh 30.19 in1022.4 mb 0.00 in0.0 mm 0.00 in0.0 mm 0.00 in0.0 mm
07:10 AM 56.8°F13.8°C 56.2°F13.4°C 81% 4.4 mph 7.1 kmh 4.5 mph7.2 kmh 30.19 in1022.4 mb 0.00 in0.0 mm 0.00 in0.0 mm 0.00 in0.0 mm
07:13 AM 56.8°F13.8°C 55.8°F13.2°C 79% 6.5 mph NNE10.5 kmh NNE 6.5 mph10.5 kmh 30.19 in1022.4 mb 0.00 in0.0 mm 0.00 in0.0 mm 0.00 in0.0 mm
07:16 AM 57.0°F13.9°C 56.1°F13.4°C 79% 5.2 mph ESE8.4 kmh ESE 5.2 mph8.4 kmh 30.19 in1022.4 mb 0.00 in0.0 mm 0.00 in0.0 mm 0.00 in0.0 mm
07:19 AM 57.0°F13.9°C 56.0°F13.3°C 79% 1.2 mph NNW1.9 kmh NNW 1.2 mph1.9 kmh 30.19 in1022.4 mb 0.00 in0.0 mm 0.00 in0.0 mm 0.00 in0.0 mm
07:22 AM 57.4°F14.1°C 56.2°F13.4°C 79% 2.8 mph NE4.5 kmh NE 2.9 mph4.7 kmh 30.19 in1022.4 mb 0.00 in0.0 mm 0.00 in0.0 mm 0.00 in0.0 mm
07:25 AM 57.1°F13.9°C 56.0°F13.3°C 79% 9.3 mph SE15.0 kmh SE 9.4 mph15.1 kmh 30.19 in1022.4 mb 0.00 in0.0 mm 0.00 in0.0 mm 0.00 in0.0 mm
07:28 AM 57.2°F14.0°C 55.9°F13.3°C 79% 2.0 mph ESE3.2 kmh ESE 2.0 mph3.2 kmh 30.19 in1022.4 mb 0.00 in0.0 mm 0.00 in0.0 mm 0.00 in0.0 mm
07:31 AM 57.2°F14.0°C 56.0°F13.3°C 79% 2.8 mph ENE4.5 kmh ENE 2.9 mph4.7 kmh 30.19 in1022.4 mb 0.00 in0.0 mm 0.00 in0.0 mm 0.00 in0.0 mm
07:34 AM 57.3°F14.1°C 56.1°F13.4°C 80% 6.2 mph NNW10.0 kmh NNW 6.2 mph10.0 kmh 30.19 in1022.4 mb 0.00 in0.0 mm 0.00 in0.0 mm 0.00 in0.0 mm
07:37 AM 57.5°F14.2°C 56.0°F13.3°C 79% 7.7 mph SE12.4 kmh SE 7.7 mph12.4 kmh 30.19 in1022.4 mb 0.00 in0.0 mm 0.00 in0.0 mm 0.00 in0.0 mm
07:40 AM 57.8°F14.3°C 56.1°F13.4°C 79% 2.0 mph NE3.2 kmh NE 2.0 mph3.2 kmh 30.19 in1022.4 mb 0.00 in0.0 mm 0.00 in0.0 mm 0.00 in0.0 mm
07:43 AM 57.7°F14.3°C 56.2°F13.4°C 79% 7.6 mph NNE12.2 kmh NNE 7.7 mph12.4 kmh 30.19 in1022.4 mb 0.00 in0.0 mm 0.00 in0.0 mm 0.00 in0.0 mm
07:46 AM 58.3°F14.6°C 56.4°F13.6°C 79% 0.4 mph SE0.6 kmh SE 0.4 mph0.6 kmh 30.19 in1022.4 mb 0.00 in0.0 mm 0.00 in0.0 mm 0.00 in0.0 mm
07:49 AM 58.2°F14.6°C 56.6°F13.7°C 79% 1.2 mph E1.9 kmh E 1.2 mph1.9 kmh 30.19 in1022.4 mb 0.00 in0.0 mm 0.00 in0.0 mm 0.00 in0.0 mm
07:52 AM 58.0°F14.4°C 56.4°F13.6°C 78% 0.4 mph E0.6 kmh E 0.4 mph0.6 kmh 30.19 in1022.4 mb 0.00 in0.0 mm 0.00 in0.0 mm 0.00 in0.0 mm
07:55 AM 57.5°F14.2°C 56.5°F13.6°C 77% 2.8 mph ESE4.5 kmh ESE 2.8 mph4.5 kmh 30.19 in1022.4 mb 0.00 in0.0 mm 0.00 in0.0 mm 0.00 in0.0 mm
07:58 AM 57.4°F14.1°C 56.0°F13.3°C 78% 5.2 mph NNW8.4 kmh NNW 5.2 mph8.4 kmh 30.19 in1022.4 mb 0.00 in0.0 mm 0.00 in0.0 mm 0.00 in0.0 mm
08:01 AM 58.1°F14.5°C 56.5°F13.6°C 78% Calm Calm -- 30.19 in1022.4 mb 0.00 in0.0 mm 0.00 in0.0 mm 0.00 in0.0 mm
08:04 AM 57.9°F14.4°C 56.6°F13.7°C 78% 1.6 mph SE2.6 kmh SE 1.6 mph2.6 kmh 30.19 in1022.4 mb 0.00 in0.0 mm 0.00 in0.0 mm 0.00 in0.0 mm
08:07 AM 58.0°F14.4°C 56.3°F13.5°C 78% 5.6 mph NNW9.0 kmh NNW 5.6 mph9.0 kmh 30.19 in1022.4 mb 0.00 in0.0 mm 0.00 in0.0 mm 0.00 in0.0 mm
08:10 AM 58.4°F14.7°C 56.3°F13.5°C 78% 4.9 mph SE7.9 kmh SE 4.9 mph7.9 kmh 30.19 in1022.4 mb 0.00 in0.0 mm 0.00 in0.0 mm 0.00 in0.0 mm
08:13 AM 58.9°F14.9°C 56.7°F13.7°C 78% 2.0 mph NE3.2 kmh NE 2.0 mph3.2 kmh 30.19 in1022.4 mb 0.00 in0.0 mm 0.00 in0.0 mm 0.00 in0.0 mm
08:16 AM 58.2°F14.6°C 56.6°F13.7°C 79% 8.7 mph NNW14.0 kmh NNW 8.8 mph14.2 kmh 30.19 in1022.4 mb 0.00 in0.0 mm 0.00 in0.0 mm 0.00 in0.0 mm
08:19 AM 58.2°F14.6°C 56.6°F13.7°C 79% 10.1 mph ESE16.3 kmh ESE 10.1 mph16.3 kmh 30.20 in1022.7 mb 0.00 in0.0 mm 0.00 in0.0 mm 0.00 in0.0 mm
08:22 AM 58.2°F14.6°C 56.9°F13.8°C 80% 3.7 mph SE6.0 kmh SE 3.7 mph6.0 kmh 30.19 in1022.4 mb 0.00 in0.0 mm 0.00 in0.0 mm 0.00 in0.0 mm
08:25 AM 58.4°F14.7°C 57.1°F13.9°C 80% 7.7 mph ESE12.4 kmh ESE 7.7 mph12.4 kmh 30.20 in1022.7 mb 0.00 in0.0 mm 0.00 in0.0 mm 0.00 in0.0 mm
08:28 AM 57.9°F14.4°C 57.0°F13.9°C 79% 6.5 mph NE10.5 kmh NE 6.5 mph10.5 kmh 30.20 in1022.7 mb 0.00 in0.0 mm 0.00 in0.0 mm 0.00 in0.0 mm
08:31 AM 58.4°F14.7°C 56.3°F13.5°C 79% 12.1 mph E19.5 kmh E 12.2 mph19.6 kmh 30.19 in1022.4 mb 0.00 in0.0 mm 0.00 in0.0 mm 0.00 in0.0 mm
08:34 AM 57.7°F14.3°C 56.5°F13.6°C 79% 2.8 mph E4.5 kmh E 2.8 mph4.5 kmh 30.19 in1022.4 mb 0.00 in0.0 mm 0.00 in0.0 mm 0.00 in0.0 mm
08:37 AM 58.9°F14.9°C 56.8°F13.8°C 80% 8.0 mph ESE12.9 kmh ESE 8.0 mph12.9 kmh 30.19 in1022.4 mb 0.00 in0.0 mm 0.00 in0.0 mm 0.00 in0.0 mm
08:40 AM 58.7°F14.8°C 56.6°F13.7°C 79% 3.2 mph E5.1 kmh E 3.3 mph5.3 kmh 30.20 in1022.7 mb 0.00 in0.0 mm 0.00 in0.0 mm 0.00 in0.0 mm
08:43 AM 59.1°F15.1°C 57.2°F14.0°C 80% 3.1 mph E5.0 kmh E 3.1 mph5.0 kmh 30.20 in1022.7 mb 0.00 in0.0 mm 0.00 in0.0 mm 0.00 in0.0 mm
08:46 AM 59.1°F15.1°C 57.0°F13.9°C 79% 9.3 mph SE15.0 kmh SE 9.4 mph15.1 kmh 30.20 in1022.7 mb 0.00 in0.0 mm 0.00 in0.0 mm 0.00 in0.0 mm
08:49 AM 59.6°F15.3°C 57.1°F13.9°C 80% 3.2 mph ENE5.1 kmh ENE 3.3 mph5.3 kmh 30.20 in1022.7 mb 0.00 in0.0 mm 0.00 in0.0 mm 0.00 in0.0 mm
08:52 AM 59.0°F15.0°C 56.9°F13.8°C 79% 4.4 mph NNW7.1 kmh NNW 4.4 mph7.1 kmh 30.20 in1022.7 mb 0.00 in0.0 mm 0.00 in0.0 mm 0.00 in0.0 mm
08:55 AM 59.9°F15.5°C 57.1°F13.9°C 79% 2.0 mph NNW3.2 kmh NNW 2.0 mph3.2 kmh 30.20 in1022.7 mb 0.00 in0.0 mm 0.00 in0.0 mm 0.00 in0.0 mm
08:58 AM 60.1°F15.6°C 57.3°F14.1°C 79% 6.0 mph E9.7 kmh E 6.0 mph9.7 kmh 30.20 in1022.7 mb 0.00 in0.0 mm 0.00 in0.0 mm 0.00 in0.0 mm
09:01 AM 60.2°F15.7°C 57.3°F14.1°C 79% 0.4 mph NNW0.6 kmh NNW 0.4 mph0.6 kmh 30.20 in1022.7 mb 0.00 in0.0 mm 0.00 in0.0 mm 0.00 in0.0 mm
09:04 AM 60.4°F15.8°C 57.6°F14.2°C 78% 5.6 mph NNE9.0 kmh NNE 5.6 mph9.0 kmh 30.20 in1022.7 mb 0.00 in0.0 mm 0.00 in0.0 mm 0.00 in0.0 mm
09:07 AM 59.5°F15.3°C 57.5°F14.2°C 79% 6.5 mph NE10.5 kmh NE 6.6 mph10.6 kmh 30.20 in1022.7 mb 0.00 in0.0 mm 0.00 in0.0 mm 0.00 in0.0 mm
09:10 AM 59.9°F15.5°C 57.3°F14.1°C 78% 1.5 mph E2.4 kmh E 1.6 mph2.6 kmh 30.20 in1022.7 mb 0.00 in0.0 mm 0.00 in0.0 mm 0.00 in0.0 mm
09:13 AM 60.6°F15.9°C 57.8°F14.3°C 79% 9.3 mph ENE15.0 kmh ENE 9.3 mph15.0 kmh 30.20 in1022.7 mb 0.00 in0.0 mm 0.00 in0.0 mm 0.00 in0.0 mm
09:16 AM 60.2°F15.7°C 57.7°F14.3°C 77% 2.4 mph NNW3.9 kmh NNW 2.4 mph3.9 kmh 30.20 in1022.7 mb 0.00 in0.0 mm 0.00 in0.0 mm 0.00 in0.0 mm
09:19 AM 61.7°F16.5°C 57.5°F14.2°C 77% 3.0 mph NE4.8 kmh NE 3.3 mph5.3 kmh 30.20 in1022.7 mb 0.00 in0.0 mm 0.00 in0.0 mm 0.00 in0.0 mm
09:22 AM 60.1°F15.6°C 57.4°F14.1°C 76% 4.0 mph E6.4 kmh E 4.1 mph6.6 kmh 30.19 in1022.4 mb 0.00 in0.0 mm 0.00 in0.0 mm 0.00 in0.0 mm
09:25 AM 60.4°F15.8°C 57.5°F14.2°C 77% 7.9 mph NNW12.7 kmh NNW 8.0 mph12.9 kmh 30.20 in1022.7 mb 0.00 in0.0 mm 0.00 in0.0 mm 0.00 in0.0 mm
09:28 AM 60.4°F15.8°C 58.3°F14.6°C 79% 2.0 mph SE3.2 kmh SE 2.0 mph3.2 kmh 30.20 in1022.7 mb 0.00 in0.0 mm 0.00 in0.0 mm 0.00 in0.0 mm
09:31 AM 60.4°F15.8°C 57.4°F14.1°C 78% 6.5 mph NNW10.5 kmh NNW 6.5 mph10.5 kmh 30.20 in1022.7 mb 0.00 in0.0 mm 0.00 in0.0 mm 0.00 in0.0 mm
09:34 AM 60.7°F15.9°C 58.0°F14.4°C 79% 6.4 mph NNW10.3 kmh NNW 6.4 mph10.3 kmh 30.19 in1022.4 mb 0.00 in0.0 mm 0.00 in0.0 mm 0.00 in0.0 mm
09:37 AM 60.8°F16.0°C 57.6°F14.2°C 79% 15.5 mph SE24.9 kmh SE 15.5 mph24.9 kmh 30.19 in1022.4 mb 0.00 in0.0 mm 0.00 in0.0 mm 0.00 in0.0 mm
09:40 AM 60.7°F15.9°C 57.4°F14.1°C 78% 15.8 mph ENE25.4 kmh ENE 15.9 mph25.6 kmh 30.20 in1022.7 mb 0.00 in0.0 mm 0.00 in0.0 mm 0.00 in0.0 mm
09:43 AM 60.4°F15.8°C 57.2°F14.0°C 78% 7.3 mph SE11.7 kmh SE 7.3 mph11.7 kmh 30.20 in1022.7 mb 0.00 in0.0 mm 0.00 in0.0 mm 0.00 in0.0 mm
09:46 AM 61.0°F16.1°C 57.8°F14.3°C 78% 1.2 mph ESE1.9 kmh ESE 1.2 mph1.9 kmh 30.19 in1022.4 mb 0.00 in0.0 mm 0.00 in0.0 mm 0.00 in0.0 mm
09:49 AM 60.2°F15.7°C 57.4°F14.1°C 77% 6.8 mph SE10.9 kmh SE 6.9 mph11.1 kmh 30.19 in1022.4 mb 0.00 in0.0 mm 0.00 in0.0 mm 0.00 in0.0 mm
09:52 AM 61.0°F16.1°C 58.2°F14.6°C 79% 5.2 mph ESE8.4 kmh ESE 5.2 mph8.4 kmh 30.19 in1022.4 mb 0.00 in0.0 mm 0.00 in0.0 mm 0.00 in0.0 mm
09:55 AM 59.9°F15.5°C 57.4°F14.1°C 78% 2.4 mph E3.9 kmh E 2.4 mph3.9 kmh 30.19 in1022.4 mb 0.00 in0.0 mm 0.00 in0.0 mm 0.00 in0.0 mm
09:58 AM 60.9°F16.1°C 58.4°F14.7°C 80% 2.7 mph NNW4.3 kmh NNW 2.7 mph4.3 kmh 30.19 in1022.4 mb 0.00 in0.0 mm 0.00 in0.0 mm 0.00 in0.0 mm
10:01 AM 60.7°F15.9°C 58.1°F14.5°C 78% 1.2 mph E1.9 kmh E 1.2 mph1.9 kmh 30.19 in1022.4 mb 0.00 in0.0 mm 0.00 in0.0 mm 0.00 in0.0 mm
10:04 AM 61.3°F16.3°C 58.7°F14.8°C 79% 2.8 mph ESE4.5 kmh ESE 2.8 mph4.5 kmh 30.19 in1022.4 mb 0.00 in0.0 mm 0.00 in0.0 mm 0.00 in0.0 mm
10:07 AM 61.5°F16.4°C 58.7°F14.8°C 78% 4.0 mph ESE6.4 kmh ESE 4.1 mph6.6 kmh 30.19 in1022.4 mb 0.00 in0.0 mm 0.00 in0.0 mm 0.00 in0.0 mm
10:13 AM 62.2°F16.8°C 58.3°F14.6°C 76% 2.3 mph NNW3.7 kmh NNW 2.3 mph3.7 kmh 30.19 in1022.4 mb 0.00 in0.0 mm 0.00 in0.0 mm 0.00 in0.0 mm
10:16 AM 62.7°F17.1°C 58.6°F14.8°C 76% 3.2 mph NNW5.1 kmh NNW 3.3 mph5.3 kmh 30.19 in1022.4 mb 0.00 in0.0 mm 0.00 in0.0 mm 0.00 in0.0 mm
10:19 AM 63.3°F17.4°C 58.9°F14.9°C 77% 9.7 mph NNW15.6 kmh NNW 9.8 mph15.8 kmh 30.19 in1022.4 mb 0.00 in0.0 mm 0.00 in0.0 mm 0.00 in0.0 mm
10:22 AM 62.7°F17.1°C 58.7°F14.8°C 76% 6.5 mph ENE10.5 kmh ENE 6.5 mph10.5 kmh 30.19 in1022.4 mb 0.00 in0.0 mm 0.00 in0.0 mm 0.00 in0.0 mm
10:25 AM 62.9°F17.2°C 58.3°F14.6°C 75% 5.2 mph NNW8.4 kmh NNW 5.3 mph8.5 kmh 30.19 in1022.4 mb 0.00 in0.0 mm 0.00 in0.0 mm 0.00 in0.0 mm
10:28 AM 64.0°F17.8°C 59.2°F15.1°C 77% 5.2 mph NNW8.4 kmh NNW 5.3 mph8.5 kmh 30.19 in1022.4 mb 0.00 in0.0 mm 0.00 in0.0 mm 0.00 in0.0 mm
10:31 AM 62.9°F17.2°C 58.8°F14.9°C 76% 2.4 mph ESE3.9 kmh ESE 2.5 mph4.0 kmh 30.19 in1022.4 mb 0.00 in0.0 mm 0.00 in0.0 mm 0.00 in0.0 mm
10:34 AM 61.5°F16.4°C 58.1°F14.5°C 74% 2.3 mph NE3.7 kmh NE 2.4 mph3.9 kmh 30.19 in1022.4 mb 0.00 in0.0 mm 0.00 in0.0 mm 0.00 in0.0 mm
10:37 AM 63.2°F17.3°C 58.7°F14.8°C 74% 3.1 mph NNW5.0 kmh NNW 3.3 mph5.3 kmh 30.19 in1022.4 mb 0.00 in0.0 mm 0.00 in0.0 mm 0.00 in0.0 mm
10:40 AM 63.3°F17.4°C 58.1°F14.5°C 73% 13.5 mph ESE21.7 kmh ESE 13.5 mph21.7 kmh 30.19 in1022.4 mb 0.00 in0.0 mm 0.00 in0.0 mm 0.00 in0.0 mm
10:43 AM 64.5°F18.1°C 59.1°F15.1°C 76% 5.3 mph ESE8.5 kmh ESE 5.3 mph8.5 kmh 30.19 in1022.4 mb 0.00 in0.0 mm 0.00 in0.0 mm 0.00 in0.0 mm
10:46 AM 65.2°F18.4°C 58.6°F14.8°C 73% 5.4 mph SE8.7 kmh SE 5.4 mph8.7 kmh 30.20 in1022.7 mb 0.00 in0.0 mm 0.00 in0.0 mm 0.00 in0.0 mm
10:49 AM 63.4°F17.4°C 58.9°F14.9°C 73% 2.8 mph NE4.5 kmh NE 2.8 mph4.5 kmh 30.19 in1022.4 mb 0.00 in0.0 mm 0.00 in0.0 mm 0.00 in0.0 mm
10:52 AM 65.3°F18.5°C 59.1°F15.1°C 73% 2.4 mph NE3.9 kmh NE 2.4 mph3.9 kmh 30.19 in1022.4 mb 0.00 in0.0 mm 0.00 in0.0 mm 0.00 in0.0 mm
10:55 AM 63.7°F17.6°C 58.6°F14.8°C 72% 5.2 mph E8.4 kmh E 5.2 mph8.4 kmh 30.19 in1022.4 mb 0.00 in0.0 mm 0.00 in0.0 mm 0.00 in0.0 mm
10:58 AM 63.5°F17.5°C 59.1°F15.1°C 72% 4.9 mph NE7.9 kmh NE 4.9 mph7.9 kmh 30.19 in1022.4 mb 0.00 in0.0 mm 0.00 in0.0 mm 0.00 in0.0 mm
11:01 AM 63.6°F17.6°C 58.6°F14.8°C 72% 5.5 mph SE8.9 kmh SE 5.6 mph9.0 kmh 30.19 in1022.4 mb 0.00 in0.0 mm 0.00 in0.0 mm 0.00 in0.0 mm
11:07 AM 63.6°F17.6°C 58.9°F14.9°C 73% 0.8 mph ESE1.3 kmh ESE 0.8 mph1.3 kmh 30.19 in1022.4 mb 0.00 in0.0 mm 0.00 in0.0 mm 0.00 in0.0 mm
11:10 AM 63.4°F17.4°C 59.0°F15.0°C 72% 4.0 mph ENE6.4 kmh ENE 4.0 mph6.4 kmh 30.19 in1022.4 mb 0.00 in0.0 mm 0.00 in0.0 mm 0.00 in0.0 mm
11:13 AM 62.2°F16.8°C 58.8°F14.9°C 72% 2.4 mph NE3.9 kmh NE 2.4 mph3.9 kmh 30.19 in1022.4 mb 0.00 in0.0 mm 0.00 in0.0 mm 0.00 in0.0 mm
11:16 AM 63.2°F17.3°C 58.6°F14.8°C 72% 2.8 mph E4.5 kmh E 2.8 mph4.5 kmh 30.19 in1022.4 mb 0.00 in0.0 mm 0.00 in0.0 mm 0.00 in0.0 mm
11:19 AM 62.6°F17.0°C 58.6°F14.8°C 73% 6.1 mph SE9.8 kmh SE 6.1 mph9.8 kmh 30.19 in1022.4 mb 0.00 in0.0 mm 0.00 in0.0 mm 0.00 in0.0 mm
11:22 AM 64.0°F17.8°C 59.1°F15.1°C 73% 8.0 mph ESE12.9 kmh ESE 8.0 mph12.9 kmh 30.18 in1022.0 mb 0.00 in0.0 mm 0.00 in0.0 mm 0.00 in0.0 mm
11:25 AM 63.6°F17.6°C 59.1°F15.1°C 73% 7.3 mph NE11.7 kmh NE 7.3 mph11.7 kmh 30.18 in1022.0 mb 0.00 in0.0 mm 0.00 in0.0 mm 0.00 in0.0 mm
11:28 AM 62.7°F17.1°C 58.7°F14.8°C 73% 3.1 mph NNW5.0 kmh NNW 3.1 mph5.0 kmh 30.19 in1022.4 mb 0.00 in0.0 mm 0.00 in0.0 mm 0.00 in0.0 mm
11:31 AM 63.1°F17.3°C 58.7°F14.8°C 73% 4.0 mph ENE6.4 kmh ENE 4.1 mph6.6 kmh 30.17 in1021.7 mb 0.00 in0.0 mm 0.00 in0.0 mm 0.00 in0.0 mm
11:34 AM 62.7°F17.1°C 58.9°F14.9°C 73% 2.8 mph NE4.5 kmh NE 2.9 mph4.7 kmh 30.17 in1021.7 mb 0.00 in0.0 mm 0.00 in0.0 mm 0.00 in0.0 mm
11:37 AM 61.8°F16.6°C 58.7°F14.8°C 72% 8.8 mph NE14.2 kmh NE 9.0 mph14.5 kmh 30.17 in1021.7 mb 0.00 in0.0 mm 0.00 in0.0 mm 0.00 in0.0 mm
11:40 AM 63.7°F17.6°C 59.1°F15.1°C 73% 4.9 mph SE7.9 kmh SE 4.9 mph7.9 kmh 30.17 in1021.7 mb 0.00 in0.0 mm 0.00 in0.0 mm 0.00 in0.0 mm
11:43 AM 63.6°F17.6°C 59.0°F15.0°C 72% 3.2 mph NE5.1 kmh NE 3.3 mph5.3 kmh 30.17 in1021.7 mb 0.00 in0.0 mm 0.00 in0.0 mm 0.00 in0.0 mm
11:46 AM 62.7°F17.1°C 59.6°F15.3°C 72% 6.6 mph NE10.6 kmh NE 6.7 mph10.8 kmh 30.17 in1021.7 mb 0.00 in0.0 mm 0.00 in0.0 mm 0.00 in0.0 mm
11:49 AM 63.2°F17.3°C 59.1°F15.1°C 71% 2.7 mph NE4.3 kmh NE 2.7 mph4.3 kmh 30.17 in1021.7 mb 0.00 in0.0 mm 0.00 in0.0 mm 0.00 in0.0 mm
11:52 AM 62.9°F17.2°C 58.6°F14.8°C 71% 9.2 mph SE14.8 kmh SE 9.2 mph14.8 kmh 30.17 in1021.7 mb 0.00 in0.0 mm 0.00 in0.0 mm 0.00 in0.0 mm
11:55 AM 63.7°F17.6°C 58.8°F14.9°C 72% 4.0 mph NE6.4 kmh NE 4.1 mph6.6 kmh 30.17 in1021.7 mb 0.00 in0.0 mm 0.00 in0.0 mm 0.00 in0.0 mm
11:58 AM 63.4°F17.4°C 58.9°F14.9°C 71% 2.8 mph NNW4.5 kmh NNW 2.8 mph4.5 kmh 30.17 in1021.7 mb 0.00 in0.0 mm 0.00 in0.0 mm 0.00 in0.0 mm
12:01 PM 63.8°F17.7°C 59.1°F15.1°C 72% 1.6 mph E2.6 kmh E 1.6 mph2.6 kmh 30.17 in1021.7 mb 0.00 in0.0 mm 0.00 in0.0 mm 0.00 in0.0 mm
12:04 PM 63.8°F17.7°C 59.2°F15.1°C 72% 5.6 mph NNW9.0 kmh NNW 5.6 mph9.0 kmh 30.17 in1021.7 mb 0.00 in0.0 mm 0.00 in0.0 mm 0.00 in0.0 mm
12:07 PM 63.2°F17.3°C 59.0°F15.0°C 72% 2.3 mph NNW3.7 kmh NNW 2.3 mph3.7 kmh 30.17 in1021.7 mb 0.00 in0.0 mm 0.00 in0.0 mm 0.00 in0.0 mm
12:10 PM 63.6°F17.6°C 58.8°F14.9°C 71% 4.8 mph NNW7.7 kmh NNW 4.9 mph7.9 kmh 30.17 in1021.7 mb 0.00 in0.0 mm 0.00 in0.0 mm 0.00 in0.0 mm
12:13 PM 63.4°F17.4°C 58.9°F14.9°C 72% 13.3 mph ESE21.4 kmh ESE 13.3 mph21.4 kmh 30.18 in1022.0 mb 0.00 in0.0 mm 0.00 in0.0 mm 0.00 in0.0 mm
12:16 PM 63.6°F17.6°C 59.1°F15.1°C 72% 12.1 mph NNW19.5 kmh NNW 12.1 mph19.5 kmh 30.18 in1022.0 mb 0.00 in0.0 mm 0.00 in0.0 mm 0.00 in0.0 mm
12:19 PM 62.9°F17.2°C 58.8°F14.9°C 72% 5.2 mph SE8.4 kmh SE 5.2 mph8.4 kmh 30.17 in1021.7 mb 0.00 in0.0 mm 0.00 in0.0 mm 0.00 in0.0 mm
12:22 PM 62.4°F16.9°C 58.6°F14.8°C 72% 7.7 mph ESE12.4 kmh ESE 7.7 mph12.4 kmh 30.19 in1022.4 mb 0.00 in0.0 mm 0.00 in0.0 mm 0.00 in0.0 mm
12:25 PM 62.3°F16.8°C 58.7°F14.8°C 73% 7.6 mph SE12.2 kmh SE 7.6 mph12.2 kmh 30.19 in1022.4 mb 0.00 in0.0 mm 0.00 in0.0 mm 0.00 in0.0 mm
12:28 PM 62.0°F16.7°C 58.5°F14.7°C 73% 7.3 mph ESE11.7 kmh ESE 7.3 mph11.7 kmh 30.19 in1022.4 mb 0.00 in0.0 mm 0.00 in0.0 mm 0.00 in0.0 mm
12:31 PM 61.6°F16.4°C 58.4°F14.7°C 73% 8.8 mph NNW14.2 kmh NNW 8.8 mph14.2 kmh 30.18 in1022.0 mb 0.00 in0.0 mm 0.00 in0.0 mm 0.00 in0.0 mm
12:34 PM 62.5°F16.9°C 58.8°F14.9°C 73% 2.7 mph ESE4.3 kmh ESE 2.7 mph4.3 kmh 30.18 in1022.0 mb 0.00 in0.0 mm 0.00 in0.0 mm 0.00 in0.0 mm
12:37 PM 61.9°F16.6°C 58.7°F14.8°C 73% 7.2 mph E11.6 kmh E 7.2 mph11.6 kmh 30.18 in1022.0 mb 0.00 in0.0 mm 0.00 in0.0 mm 0.00 in0.0 mm
12:40 PM 62.3°F16.8°C 58.9°F14.9°C 73% 1.2 mph E1.9 kmh E 1.2 mph1.9 kmh 30.18 in1022.0 mb 0.00 in0.0 mm 0.00 in0.0 mm 0.00 in0.0 mm
12:43 PM 61.9°F16.6°C 58.6°F14.8°C 72% 4.1 mph SE6.6 kmh SE 4.1 mph6.6 kmh 30.18 in1022.0 mb 0.00 in0.0 mm 0.00 in0.0 mm 0.00 in0.0 mm
12:46 PM 62.2°F16.8°C 58.6°F14.8°C 73% 4.6 mph ESE7.4 kmh ESE 4.6 mph7.4 kmh 30.19 in1022.4 mb 0.00 in0.0 mm 0.00 in0.0 mm 0.00 in0.0 mm
12:49 PM 61.4°F16.3°C 58.6°F14.8°C 73% 6.8 mph NNW10.9 kmh NNW 6.8 mph10.9 kmh 30.19 in1022.4 mb 0.00 in0.0 mm 0.00 in0.0 mm 0.00 in0.0 mm
12:52 PM 61.4°F16.3°C 58.6°F14.8°C 73% 2.4 mph SE3.9 kmh SE 2.4 mph3.9 kmh 30.18 in1022.0 mb 0.00 in0.0 mm 0.00 in0.0 mm 0.00 in0.0 mm
12:55 PM 61.4°F16.3°C 58.8°F14.9°C 73% 3.6 mph SE5.8 kmh SE 3.6 mph5.8 kmh 30.18 in1022.0 mb 0.00 in0.0 mm 0.00 in0.0 mm 0.00 in0.0 mm
12:58 PM 61.5°F16.4°C 58.5°F14.7°C 73% 4.8 mph ESE7.7 kmh ESE 4.8 mph7.7 kmh 30.18 in1022.0 mb 0.00 in0.0 mm 0.00 in0.0 mm 0.00 in0.0 mm
01:01 PM 61.8°F16.6°C 58.5°F14.7°C 73% 4.8 mph ESE7.7 kmh ESE 4.9 mph7.9 kmh 30.18 in1022.0 mb 0.00 in0.0 mm 0.00 in0.0 mm 0.00 in0.0 mm
01:04 PM 61.7°F16.5°C 58.7°F14.8°C 73% 5.2 mph ESE8.4 kmh ESE 5.2 mph8.4 kmh 30.17 in1021.7 mb 0.00 in0.0 mm 0.00 in0.0 mm 0.00 in0.0 mm
01:07 PM 61.9°F16.6°C 58.9°F14.9°C 73% 6.1 mph ESE9.8 kmh ESE 6.1 mph9.8 kmh 30.18 in1022.0 mb 0.00 in0.0 mm 0.00 in0.0 mm 0.00 in0.0 mm
01:10 PM 62.3°F16.8°C 58.6°F14.8°C 73% 2.8 mph NE4.5 kmh NE 2.9 mph4.7 kmh 30.17 in1021.7 mb 0.00 in0.0 mm 0.00 in0.0 mm 0.00 in0.0 mm
01:13 PM 62.6°F17.0°C 58.8°F14.9°C 74% 9.7 mph SE15.6 kmh SE 9.8 mph15.8 kmh 30.17 in1021.7 mb 0.00 in0.0 mm 0.00 in0.0 mm 0.00 in0.0 mm
01:16 PM 61.9°F16.6°C 58.4°F14.7°C 73% 5.7 mph ESE9.2 kmh ESE 5.7 mph9.2 kmh 30.17 in1021.7 mb 0.00 in0.0 mm 0.00 in0.0 mm 0.00 in0.0 mm
01:19 PM 62.7°F17.1°C 58.8°F14.9°C 74% 6.1 mph SE9.8 kmh SE 6.1 mph9.8 kmh 30.17 in1021.7 mb 0.00 in0.0 mm 0.00 in0.0 mm 0.00 in0.0 mm
01:22 PM 63.3°F17.4°C 58.9°F14.9°C 73% 7.3 mph ENE11.7 kmh ENE 7.3 mph11.7 kmh 30.16 in1021.3 mb 0.00 in0.0 mm 0.00 in0.0 mm 0.00 in0.0 mm
01:25 PM 64.1°F17.8°C 58.8°F14.9°C 73% 12.1 mph SE19.5 kmh SE 12.2 mph19.6 kmh 30.16 in1021.3 mb 0.00 in0.0 mm 0.00 in0.0 mm 0.00 in0.0 mm
01:28 PM 63.3°F17.4°C 58.3°F14.6°C 73% 7.1 mph NE11.4 kmh NE 7.2 mph11.6 kmh 30.16 in1021.3 mb 0.00 in0.0 mm 0.00 in0.0 mm 0.00 in0.0 mm
01:31 PM 63.8°F17.7°C 59.3°F15.2°C 74% 5.7 mph E9.2 kmh E 5.7 mph9.2 kmh 30.17 in1021.7 mb 0.00 in0.0 mm 0.00 in0.0 mm 0.00 in0.0 mm
01:34 PM 63.1°F17.3°C 58.8°F14.9°C 73% 7.7 mph ESE12.4 kmh ESE 7.7 mph12.4 kmh 30.17 in1021.7 mb 0.00 in0.0 mm 0.00 in0.0 mm 0.00 in0.0 mm
01:37 PM 64.1°F17.8°C 59.2°F15.1°C 73% 3.2 mph NE5.1 kmh NE 3.3 mph5.3 kmh 30.16 in1021.3 mb 0.00 in0.0 mm 0.00 in0.0 mm 0.00 in0.0 mm
01:40 PM 64.0°F17.8°C 58.9°F14.9°C 72% 7.5 mph SE12.1 kmh SE 7.6 mph12.2 kmh 30.17 in1021.7 mb 0.00 in0.0 mm 0.00 in0.0 mm 0.00 in0.0 mm
01:43 PM 64.1°F17.8°C 59.1°F15.1°C 72% 4.5 mph SE7.2 kmh SE 4.5 mph7.2 kmh 30.16 in1021.3 mb 0.00 in0.0 mm 0.00 in0.0 mm 0.00 in0.0 mm
01:46 PM 63.8°F17.7°C 59.3°F15.2°C 72% 4.4 mph SE7.1 kmh SE 4.5 mph7.2 kmh 30.17 in1021.7 mb 0.00 in0.0 mm 0.00 in0.0 mm 0.00 in0.0 mm
01:49 PM 64.1°F17.8°C 59.3°F15.2°C 72% 8.0 mph SE12.9 kmh SE 8.0 mph12.9 kmh 30.17 in1021.7 mb 0.00 in0.0 mm 0.00 in0.0 mm 0.00 in0.0 mm
01:52 PM 63.6°F17.6°C 59.2°F15.1°C 72% 3.4 mph SSE5.5 kmh SSE 3.7 mph6.0 kmh 30.17 in1021.7 mb 0.00 in0.0 mm 0.00 in0.0 mm 0.00 in0.0 mm
01:55 PM 64.4°F18.0°C 59.6°F15.3°C 72% 3.6 mph NE5.8 kmh NE 3.7 mph6.0 kmh 30.17 in1021.7 mb 0.00 in0.0 mm 0.00 in0.0 mm 0.00 in0.0 mm
01:58 PM 64.2°F17.9°C 59.7°F15.4°C 71% 4.9 mph SE7.9 kmh SE 4.9 mph7.9 kmh 30.17 in1021.7 mb 0.00 in0.0 mm 0.00 in0.0 mm 0.00 in0.0 mm
02:01 PM 64.2°F17.9°C 59.1°F15.1°C 71% 1.6 mph NE2.6 kmh NE 1.6 mph2.6 kmh 30.16 in1021.3 mb 0.00 in0.0 mm 0.00 in0.0 mm 0.00 in0.0 mm
02:04 PM 64.7°F18.2°C 59.6°F15.3°C 71% 1.2 mph 1.9 kmh 1.2 mph1.9 kmh 30.16 in1021.3 mb 0.00 in0.0 mm 0.00 in0.0 mm 0.00 in0.0 mm
02:07 PM 64.2°F17.9°C 59.6°F15.3°C 70% 5.2 mph E8.4 kmh E 5.2 mph8.4 kmh 30.16 in1021.3 mb 0.00 in0.0 mm 0.00 in0.0 mm 0.00 in0.0 mm
02:13 PM 64.7°F18.2°C 59.4°F15.2°C 71% 9.1 mph SE14.6 kmh SE 9.2 mph14.8 kmh 30.16 in1021.3 mb 0.00 in0.0 mm 0.00 in0.0 mm 0.00 in0.0 mm
02:16 PM 64.4°F18.0°C 59.1°F15.1°C 71% 8.1 mph ESE13.0 kmh ESE 8.1 mph13.0 kmh 30.16 in1021.3 mb 0.00 in0.0 mm 0.00 in0.0 mm 0.00 in0.0 mm
02:19 PM 64.4°F18.0°C 59.3°F15.2°C 71% 15.3 mph ESE24.6 kmh ESE 15.3 mph24.6 kmh 30.16 in1021.3 mb 0.00 in0.0 mm 0.00 in0.0 mm 0.00 in0.0 mm
02:22 PM 66.0°F18.9°C 59.7°F15.4°C 71% 5.6 mph NE9.0 kmh NE 5.6 mph9.0 kmh 30.16 in1021.3 mb 0.00 in0.0 mm 0.00 in0.0 mm 0.00 in0.0 mm
02:25 PM 65.4°F18.6°C 59.5°F15.3°C 70% 8.4 mph NNW13.5 kmh NNW 8.4 mph13.5 kmh 30.16 in1021.3 mb 0.00 in0.0 mm 0.00 in0.0 mm 0.00 in0.0 mm
02:28 PM 65.0°F18.3°C 59.3°F15.2°C 70% 4.0 mph NNW6.4 kmh NNW 4.1 mph6.6 kmh 30.16 in1021.3 mb 0.00 in0.0 mm 0.00 in0.0 mm 0.00 in0.0 mm
02:31 PM 65.1°F18.4°C 59.5°F15.3°C 70% 10.1 mph SE16.3 kmh SE 10.2 mph16.4 kmh 30.16 in1021.3 mb 0.00 in0.0 mm 0.00 in0.0 mm 0.00 in0.0 mm
02:34 PM 66.4°F19.1°C 59.8°F15.4°C 70% 4.4 mph SE7.1 kmh SE 4.5 mph7.2 kmh 30.16 in1021.3 mb 0.00 in0.0 mm 0.00 in0.0 mm 0.00 in0.0 mm
02:37 PM 66.4°F19.1°C 59.8°F15.4°C 69% 6.9 mph NNE11.1 kmh NNE 6.9 mph11.1 kmh 30.16 in1021.3 mb 0.00 in0.0 mm 0.00 in0.0 mm 0.00 in0.0 mm
02:40 PM 66.5°F19.2°C 60.0°F15.6°C 68% 3.6 mph SE5.8 kmh SE 3.7 mph6.0 kmh 30.16 in1021.3 mb 0.00 in0.0 mm 0.00 in0.0 mm 0.00 in0.0 mm
02:43 PM 66.5°F19.2°C 60.4°F15.8°C 69% 3.8 mph 6.1 kmh 3.8 mph6.1 kmh 30.16 in1021.3 mb 0.00 in0.0 mm 0.00 in0.0 mm 0.00 in0.0 mm
02:46 PM 66.4°F19.1°C 60.0°F15.6°C 68% 4.9 mph SE7.9 kmh SE 4.9 mph7.9 kmh 30.16 in1021.3 mb 0.00 in0.0 mm 0.00 in0.0 mm 0.00 in0.0 mm
02:49 PM 66.0°F18.9°C 59.6°F15.3°C 68% 2.8 mph ESE4.5 kmh ESE 2.9 mph4.7 kmh 30.16 in1021.3 mb 0.00 in0.0 mm 0.00 in0.0 mm 0.00 in0.0 mm
02:52 PM 66.5°F19.2°C 60.2°F15.7°C 69% 5.7 mph NNW9.2 kmh NNW 5.7 mph9.2 kmh 30.16 in1021.3 mb 0.00 in0.0 mm 0.00 in0.0 mm 0.00 in0.0 mm
02:58 PM 65.3°F18.5°C 59.9°F15.5°C 68% 4.8 mph SE7.7 kmh SE 4.8 mph7.7 kmh 30.16 in1021.3 mb 0.00 in0.0 mm 0.00 in0.0 mm 0.00 in0.0 mm
03:01 PM 65.6°F18.7°C 60.0°F15.6°C 69% 1.9 mph E3.1 kmh E 1.9 mph3.1 kmh 30.15 in1021.0 mb 0.00 in0.0 mm 0.00 in0.0 mm 0.00 in0.0 mm
03:04 PM 64.5°F18.1°C 59.8°F15.4°C 68% 6.8 mph SSE10.9 kmh SSE 6.8 mph10.9 kmh 30.15 in1021.0 mb 0.00 in0.0 mm 0.00 in0.0 mm 0.00 in0.0 mm
03:07 PM 65.6°F18.7°C 60.0°F15.6°C 68% 3.2 mph ESE5.1 kmh ESE 3.3 mph5.3 kmh 30.15 in1021.0 mb 0.00 in0.0 mm 0.00 in0.0 mm 0.00 in0.0 mm
03:10 PM 65.0°F18.3°C 60.0°F15.6°C 68% 5.7 mph SE9.2 kmh SE 5.7 mph9.2 kmh 30.15 in1021.0 mb 0.00 in0.0 mm 0.00 in0.0 mm 0.00 in0.0 mm
03:13 PM 64.2°F17.9°C 60.1°F15.6°C 69% 7.9 mph ESE12.7 kmh ESE 8.0 mph12.9 kmh 30.14 in1020.7 mb 0.00 in0.0 mm 0.00 in0.0 mm 0.00 in0.0 mm
03:16 PM 63.8°F17.7°C 59.5°F15.3°C 71% 11.5 mph SE18.5 kmh SE 11.6 mph18.7 kmh 30.14 in1020.7 mb 0.00 in0.0 mm 0.00 in0.0 mm 0.00 in0.0 mm
03:19 PM 65.3°F18.5°C 60.1°F15.6°C 71% 0.4 mph S0.6 kmh S 0.4 mph0.6 kmh 30.14 in1020.7 mb 0.00 in0.0 mm 0.00 in0.0 mm 0.00 in0.0 mm
03:22 PM 64.6°F18.1°C 59.6°F15.3°C 70% 6.0 mph ESE9.7 kmh ESE 6.0 mph9.7 kmh 30.14 in1020.7 mb 0.00 in0.0 mm 0.00 in0.0 mm 0.00 in0.0 mm
03:25 PM 64.9°F18.3°C 60.0°F15.6°C 71% 5.2 mph NE8.4 kmh NE 5.2 mph8.4 kmh 30.14 in1020.7 mb 0.00 in0.0 mm 0.00 in0.0 mm 0.00 in0.0 mm
03:28 PM 64.0°F17.8°C 59.8°F15.4°C 70% 5.7 mph SE9.2 kmh SE 5.7 mph9.2 kmh 30.14 in1020.7 mb 0.00 in0.0 mm 0.00 in0.0 mm 0.00 in0.0 mm
03:31 PM 63.4°F17.4°C 59.7°F15.4°C 71% 11.8 mph ESE19.0 kmh ESE 11.8 mph19.0 kmh 30.15 in1021.0 mb 0.00 in0.0 mm 0.00 in0.0 mm 0.00 in0.0 mm
03:34 PM 63.2°F17.3°C 59.4°F15.2°C 71% 3.6 mph ESE5.8 kmh ESE 3.6 mph5.8 kmh 30.15 in1021.0 mb 0.00 in0.0 mm 0.00 in0.0 mm 0.00 in0.0 mm
03:37 PM 63.5°F17.5°C 59.7°F15.4°C 71% 2.7 mph E4.3 kmh E 2.8 mph4.5 kmh 30.15 in1021.0 mb 0.00 in0.0 mm 0.00 in0.0 mm 0.00 in0.0 mm
03:40 PM 63.4°F17.4°C 59.9°F15.5°C 71% 7.7 mph NNW12.4 kmh NNW 7.8 mph12.6 kmh 30.15 in1021.0 mb 0.00 in0.0 mm 0.00 in0.0 mm 0.00 in0.0 mm
03:43 PM 63.6°F17.6°C 60.0°F15.6°C 71% 4.0 mph NE6.4 kmh NE 4.0 mph6.4 kmh 30.14 in1020.7 mb 0.00 in0.0 mm 0.00 in0.0 mm 0.00 in0.0 mm
03:46 PM 62.8°F17.1°C 59.9°F15.5°C 71% 4.8 mph NNW7.7 kmh NNW 4.9 mph7.9 kmh 30.16 in1021.3 mb 0.00 in0.0 mm 0.00 in0.0 mm 0.00 in0.0 mm
03:49 PM 62.0°F16.7°C 59.7°F15.4°C 71% 2.4 mph ENE3.9 kmh ENE 2.5 mph4.0 kmh 30.16 in1021.3 mb 0.00 in0.0 mm 0.00 in0.0 mm 0.00 in0.0 mm
03:52 PM 62.4°F16.9°C 59.5°F15.3°C 72% 6.0 mph ESE9.7 kmh ESE 6.0 mph9.7 kmh 30.16 in1021.3 mb 0.00 in0.0 mm 0.00 in0.0 mm 0.00 in0.0 mm
03:55 PM 62.3°F16.8°C 59.6°F15.3°C 72% 1.6 mph ESE2.6 kmh ESE 1.6 mph2.6 kmh 30.16 in1021.3 mb 0.00 in0.0 mm 0.00 in0.0 mm 0.00 in0.0 mm
03:58 PM 62.5°F16.9°C 59.7°F15.4°C 72% 3.2 mph ENE5.1 kmh ENE 3.3 mph5.3 kmh 30.16 in1021.3 mb 0.00 in0.0 mm 0.00 in0.0 mm 0.00 in0.0 mm
04:01 PM 63.1°F17.3°C 60.4°F15.8°C 73% 1.9 mph E3.1 kmh E 1.9 mph3.1 kmh 30.16 in1021.3 mb 0.00 in0.0 mm 0.00 in0.0 mm 0.00 in0.0 mm
04:04 PM 63.4°F17.4°C 59.9°F15.5°C 73% 3.2 mph ESE5.1 kmh ESE 3.2 mph5.1 kmh 30.16 in1021.3 mb 0.00 in0.0 mm 0.00 in0.0 mm 0.00 in0.0 mm
04:10 PM 63.4°F17.4°C 59.7°F15.4°C 73% 4.0 mph SE6.4 kmh SE 4.1 mph6.6 kmh 30.16 in1021.3 mb 0.00 in0.0 mm 0.00 in0.0 mm 0.00 in0.0 mm
04:13 PM 62.7°F17.1°C 59.9°F15.5°C 73% 6.9 mph NNW11.1 kmh NNW 7.0 mph11.3 kmh 30.16 in1021.3 mb 0.00 in0.0 mm 0.00 in0.0 mm 0.00 in0.0 mm
04:16 PM 62.6°F17.0°C 60.2°F15.7°C 74% 4.9 mph ESE7.9 kmh ESE 4.9 mph7.9 kmh 30.16 in1021.3 mb 0.00 in0.0 mm 0.00 in0.0 mm 0.00 in0.0 mm
04:19 PM 62.3°F16.8°C 59.8°F15.4°C 74% 8.5 mph SE13.7 kmh SE 8.5 mph13.7 kmh 30.16 in1021.3 mb 0.00 in0.0 mm 0.00 in0.0 mm 0.00 in0.0 mm
04:22 PM 62.4°F16.9°C 60.0°F15.6°C 74% 4.0 mph SE6.4 kmh SE 4.0 mph6.4 kmh 30.16 in1021.3 mb 0.00 in0.0 mm 0.00 in0.0 mm 0.00 in0.0 mm
04:25 PM 62.2°F16.8°C 60.0°F15.6°C 74% 6.8 mph ESE10.9 kmh ESE 6.9 mph11.1 kmh 30.16 in1021.3 mb 0.00 in0.0 mm 0.00 in0.0 mm 0.00 in0.0 mm
04:28 PM 62.8°F17.1°C 60.0°F15.6°C 74% 3.6 mph NNW5.8 kmh NNW 3.6 mph5.8 kmh 30.16 in1021.3 mb 0.00 in0.0 mm 0.00 in0.0 mm 0.00 in0.0 mm
04:31 PM 62.6°F17.0°C 59.7°F15.4°C 74% 8.5 mph ESE13.7 kmh ESE 8.5 mph13.7 kmh 30.16 in1021.3 mb 0.00 in0.0 mm 0.00 in0.0 mm 0.00 in0.0 mm
04:34 PM 62.6°F17.0°C 59.7°F15.4°C 74% 2.0 mph NNW3.2 kmh NNW 2.0 mph3.2 kmh 30.16 in1021.3 mb 0.00 in0.0 mm 0.00 in0.0 mm 0.00 in0.0 mm
04:37 PM 62.6°F17.0°C 60.1°F15.6°C 74% 3.6 mph NE5.8 kmh NE 3.7 mph6.0 kmh 30.16 in1021.3 mb 0.00 in0.0 mm 0.00 in0.0 mm 0.00 in0.0 mm
04:40 PM 62.7°F17.1°C 60.1°F15.6°C 74% 7.3 mph ESE11.7 kmh ESE 7.3 mph11.7 kmh 30.16 in1021.3 mb 0.00 in0.0 mm 0.00 in0.0 mm 0.00 in0.0 mm
04:46 PM 61.7°F16.5°C 59.7°F15.4°C 74% 5.7 mph ESE9.2 kmh ESE 5.7 mph9.2 kmh 30.16 in1021.3 mb 0.00 in0.0 mm 0.00 in0.0 mm 0.00 in0.0 mm
04:49 PM 61.8°F16.6°C 59.9°F15.5°C 74% 5.6 mph ESE9.0 kmh ESE 5.6 mph9.0 kmh 30.15 in1021.0 mb 0.00 in0.0 mm 0.00 in0.0 mm 0.00 in0.0 mm
04:52 PM 61.8°F16.6°C 59.7°F15.4°C 75% 4.5 mph ESE7.2 kmh ESE 4.5 mph7.2 kmh 30.16 in1021.3 mb 0.00 in0.0 mm 0.00 in0.0 mm 0.00 in0.0 mm
04:55 PM 62.4°F16.9°C 59.9°F15.5°C 74% 2.8 mph NNW4.5 kmh NNW 2.9 mph4.7 kmh 30.15 in1021.0 mb 0.00 in0.0 mm 0.00 in0.0 mm 0.00 in0.0 mm
04:58 PM 62.3°F16.8°C 59.8°F15.4°C 74% 6.1 mph NNW9.8 kmh NNW 6.1 mph9.8 kmh 30.15 in1021.0 mb 0.00 in0.0 mm 0.00 in0.0 mm 0.00 in0.0 mm
05:01 PM 62.5°F16.9°C 60.1°F15.6°C 74% 3.4 mph SE5.5 kmh SE 3.4 mph5.5 kmh 30.15 in1021.0 mb 0.00 in0.0 mm 0.00 in0.0 mm 0.00 in0.0 mm
05:04 PM 62.7°F17.1°C 60.1°F15.6°C 74% 2.8 mph E4.5 kmh E 2.9 mph4.7 kmh 30.15 in1021.0 mb 0.00 in0.0 mm 0.00 in0.0 mm 0.00 in0.0 mm
05:07 PM 62.2°F16.8°C 60.2°F15.7°C 74% 5.6 mph NNW9.0 kmh NNW 5.6 mph9.0 kmh 30.16 in1021.3 mb 0.00 in0.0 mm 0.00 in0.0 mm 0.00 in0.0 mm
05:10 PM 62.0°F16.7°C 59.8°F15.4°C 74% 7.3 mph ESE11.7 kmh ESE 7.4 mph11.9 kmh 30.15 in1021.0 mb 0.00 in0.0 mm 0.00 in0.0 mm 0.00 in0.0 mm
05:13 PM 61.7°F16.5°C 59.7°F15.4°C 74% 1.2 mph NNW1.9 kmh NNW 1.2 mph1.9 kmh 30.15 in1021.0 mb 0.00 in0.0 mm 0.00 in0.0 mm 0.00 in0.0 mm
05:16 PM 61.8°F16.6°C 59.9°F15.5°C 74% 3.2 mph NNW5.1 kmh NNW 3.3 mph5.3 kmh 30.15 in1021.0 mb 0.00 in0.0 mm 0.00 in0.0 mm 0.00 in0.0 mm
05:19 PM 62.6°F17.0°C 59.7°F15.4°C 73% 2.7 mph ESE4.3 kmh ESE 2.9 mph4.7 kmh 30.14 in1020.7 mb 0.00 in0.0 mm 0.00 in0.0 mm 0.00 in0.0 mm
05:22 PM 61.7°F16.5°C 59.7°F15.4°C 73% 0.8 mph SE1.3 kmh SE 0.8 mph1.3 kmh 30.14 in1020.7 mb 0.00 in0.0 mm 0.00 in0.0 mm 0.00 in0.0 mm
05:25 PM 61.7°F16.5°C 59.8°F15.4°C 73% 1.2 mph ENE1.9 kmh ENE 1.2 mph1.9 kmh 30.14 in1020.7 mb 0.00 in0.0 mm 0.00 in0.0 mm 0.00 in0.0 mm
05:31 PM 61.8°F16.6°C 60.0°F15.6°C 74% 4.9 mph ESE7.9 kmh ESE 4.9 mph7.9 kmh 30.16 in1021.3 mb 0.00 in0.0 mm 0.00 in0.0 mm 0.00 in0.0 mm
05:34 PM 61.5°F16.4°C 59.6°F15.3°C 74% 7.3 mph SE11.7 kmh SE 7.3 mph11.7 kmh 30.15 in1021.0 mb 0.00 in0.0 mm 0.00 in0.0 mm 0.00 in0.0 mm
05:40 PM 61.8°F16.6°C 59.8°F15.4°C 75% 4.8 mph ESE7.7 kmh ESE 4.8 mph7.7 kmh 30.14 in1020.7 mb 0.00 in0.0 mm 0.00 in0.0 mm 0.00 in0.0 mm
05:43 PM 61.5°F16.4°C 59.6°F15.3°C 74% 3.6 mph ESE5.8 kmh ESE 3.7 mph6.0 kmh 30.14 in1020.7 mb 0.00 in0.0 mm 0.00 in0.0 mm 0.00 in0.0 mm
05:49 PM 61.6°F16.4°C 59.3°F15.2°C 74% 6.4 mph NNW10.3 kmh NNW 6.4 mph10.3 kmh 30.14 in1020.7 mb 0.00 in0.0 mm 0.00 in0.0 mm 0.00 in0.0 mm
05:55 PM 62.3°F16.8°C 59.5°F15.3°C 73% 2.8 mph ESE4.5 kmh ESE 2.8 mph4.5 kmh 30.13 in1020.3 mb 0.00 in0.0 mm 0.00 in0.0 mm 0.00 in0.0 mm
05:58 PM 61.9°F16.6°C 59.7°F15.4°C 74% 3.2 mph SE5.1 kmh SE 3.3 mph5.3 kmh 30.14 in1020.7 mb 0.00 in0.0 mm 0.00 in0.0 mm 0.00 in0.0 mm
06:01 PM 62.4°F16.9°C 59.8°F15.4°C 74% 3.2 mph E5.1 kmh E 3.2 mph5.1 kmh 30.13 in1020.3 mb 0.00 in0.0 mm 0.00 in0.0 mm 0.00 in0.0 mm
06:04 PM 62.7°F17.1°C 59.4°F15.2°C 73% 2.4 mph E3.9 kmh E 2.4 mph3.9 kmh 30.13 in1020.3 mb 0.00 in0.0 mm 0.00 in0.0 mm 0.00 in0.0 mm
06:07 PM 62.4°F16.9°C 59.6°F15.3°C 73% 5.4 mph ENE8.7 kmh ENE 5.4 mph8.7 kmh 30.13 in1020.3 mb 0.00 in0.0 mm 0.00 in0.0 mm 0.00 in0.0 mm
06:10 PM 61.9°F16.6°C 59.8°F15.4°C 73% 8.4 mph SE13.5 kmh SE 8.4 mph13.5 kmh 30.14 in1020.7 mb 0.00 in0.0 mm 0.00 in0.0 mm 0.00 in0.0 mm
06:13 PM 62.0°F16.7°C 59.7°F15.4°C 73% 2.0 mph ESE3.2 kmh ESE 2.0 mph3.2 kmh 30.13 in1020.3 mb 0.00 in0.0 mm 0.00 in0.0 mm 0.00 in0.0 mm
06:16 PM 61.5°F16.4°C 59.7°F15.4°C 73% 4.6 mph ESE7.4 kmh ESE 4.6 mph7.4 kmh 30.13 in1020.3 mb 0.00 in0.0 mm 0.00 in0.0 mm 0.00 in0.0 mm
06:19 PM 61.3°F16.3°C 59.6°F15.3°C 73% 4.0 mph NE6.4 kmh NE 4.1 mph6.6 kmh 30.13 in1020.3 mb 0.00 in0.0 mm 0.00 in0.0 mm 0.00 in0.0 mm
06:22 PM 61.4°F16.3°C 59.8°F15.4°C 74% Calm Calm -- 30.13 in1020.3 mb 0.00 in0.0 mm 0.00 in0.0 mm 0.00 in0.0 mm
06:25 PM 61.1°F16.2°C 59.7°F15.4°C 75% 3.6 mph NNE5.8 kmh NNE 3.7 mph6.0 kmh 30.13 in1020.3 mb 0.00 in0.0 mm 0.00 in0.0 mm 0.00 in0.0 mm
06:31 PM 61.3°F16.3°C 59.8°F15.4°C 74% 1.6 mph NNW2.6 kmh NNW 1.6 mph2.6 kmh 30.13 in1020.3 mb 0.00 in0.0 mm 0.00 in0.0 mm 0.00 in0.0 mm
06:34 PM 61.1°F16.2°C 59.6°F15.3°C 74% Calm Calm -- 30.13 in1020.3 mb 0.00 in0.0 mm 0.00 in0.0 mm 0.00 in0.0 mm
06:37 PM 61.0°F16.1°C 59.6°F15.3°C 74% 4.0 mph ESE6.4 kmh ESE 4.1 mph6.6 kmh 30.13 in1020.3 mb 0.00 in0.0 mm 0.00 in0.0 mm 0.00 in0.0 mm
06:43 PM 61.0°F16.1°C 59.9°F15.5°C 75% 0.4 mph NNW0.6 kmh NNW 0.4 mph0.6 kmh 30.13 in1020.3 mb 0.00 in0.0 mm 0.00 in0.0 mm 0.00 in0.0 mm
06:46 PM 60.9°F16.1°C 59.5°F15.3°C 74% 0.8 mph E1.3 kmh E 0.8 mph1.3 kmh 30.13 in1020.3 mb 0.00 in0.0 mm 0.00 in0.0 mm 0.00 in0.0 mm
06:49 PM 60.9°F16.1°C 59.9°F15.5°C 74% 0.8 mph SSW1.3 kmh SSW 0.8 mph1.3 kmh 30.13 in1020.3 mb 0.00 in0.0 mm 0.00 in0.0 mm 0.00 in0.0 mm
06:55 PM 60.2°F15.7°C 59.6°F15.3°C 75% 5.7 mph SE9.2 kmh SE 5.7 mph9.2 kmh 30.13 in1020.3 mb 0.00 in0.0 mm 0.00 in0.0 mm 0.00 in0.0 mm
06:58 PM 60.1°F15.6°C 59.4°F15.2°C 75% 4.0 mph E6.4 kmh E 4.1 mph6.6 kmh 30.13 in1020.3 mb 0.00 in0.0 mm 0.00 in0.0 mm 0.00 in0.0 mm
07:01 PM 60.1°F15.6°C 59.4°F15.2°C 75% 0.8 mph ENE1.3 kmh ENE 0.8 mph1.3 kmh 30.13 in1020.3 mb 0.00 in0.0 mm 0.00 in0.0 mm 0.00 in0.0 mm
07:04 PM 59.8°F15.4°C 59.4°F15.2°C 76% 2.8 mph SE4.5 kmh SE 2.9 mph4.7 kmh 30.13 in1020.3 mb 0.00 in0.0 mm 0.00 in0.0 mm 0.00 in0.0 mm
07:07 PM 59.6°F15.3°C 59.9°F15.5°C 76% 2.0 mph NNW3.2 kmh NNW 2.0 mph3.2 kmh 30.13 in1020.3 mb 0.00 in0.0 mm 0.00 in0.0 mm 0.00 in0.0 mm
07:10 PM 59.5°F15.3°C 59.5°F15.3°C 76% 2.0 mph NW3.2 kmh NW 2.0 mph3.2 kmh 30.13 in1020.3 mb 0.00 in0.0 mm 0.00 in0.0 mm 0.00 in0.0 mm
07:13 PM 59.7°F15.4°C 59.4°F15.2°C 76% 1.6 mph NNW2.6 kmh NNW 1.6 mph2.6 kmh 30.13 in1020.3 mb 0.00 in0.0 mm 0.00 in0.0 mm 0.00 in0.0 mm
07:16 PM 59.6°F15.3°C 59.5°F15.3°C 75% 0.8 mph W1.3 kmh W 0.8 mph1.3 kmh 30.14 in1020.7 mb 0.00 in0.0 mm 0.00 in0.0 mm 0.00 in0.0 mm
07:19 PM 59.7°F15.4°C 59.7°F15.4°C 76% Calm Calm -- 30.14 in1020.7 mb 0.00 in0.0 mm 0.00 in0.0 mm 0.00 in0.0 mm
07:22 PM 59.7°F15.4°C 59.7°F15.4°C 76% 4.4 mph ESE7.1 kmh ESE 4.4 mph7.1 kmh 30.13 in1020.3 mb 0.00 in0.0 mm 0.00 in0.0 mm 0.00 in0.0 mm
07:25 PM 59.7°F15.4°C 59.7°F15.4°C 76% 0.4 mph W0.6 kmh W 0.4 mph0.6 kmh 30.13 in1020.3 mb 0.00 in0.0 mm 0.00 in0.0 mm 0.00 in0.0 mm
07:28 PM 59.7°F15.4°C 59.4°F15.2°C 75% Calm Calm -- 30.14 in1020.7 mb 0.00 in0.0 mm 0.00 in0.0 mm 0.00 in0.0 mm
07:31 PM 59.6°F15.3°C 59.5°F15.3°C 76% 3.2 mph NNW5.1 kmh NNW 3.2 mph5.1 kmh 30.14 in1020.7 mb 0.00 in0.0 mm 0.00 in0.0 mm 0.00 in0.0 mm
07:34 PM 59.5°F15.3°C 59.7°F15.4°C 77% 2.4 mph NNW3.9 kmh NNW 2.4 mph3.9 kmh 30.14 in1020.7 mb 0.00 in0.0 mm 0.00 in0.0 mm 0.00 in0.0 mm
07:37 PM 59.5°F15.3°C 59.6°F15.3°C 78% 6.0 mph E9.7 kmh E 6.0 mph9.7 kmh 30.13 in1020.3 mb 0.00 in0.0 mm 0.00 in0.0 mm 0.00 in0.0 mm
07:40 PM 59.5°F15.3°C 59.6°F15.3°C 78% 1.6 mph SE2.6 kmh SE 1.6 mph2.6 kmh 30.14 in1020.7 mb 0.00 in0.0 mm 0.00 in0.0 mm 0.00 in0.0 mm
07:43 PM 59.5°F15.3°C 59.5°F15.3°C 78% 7.7 mph ESE12.4 kmh ESE 7.7 mph12.4 kmh 30.14 in1020.7 mb 0.00 in0.0 mm 0.00 in0.0 mm 0.00 in0.0 mm
07:46 PM 59.5°F15.3°C 59.5°F15.3°C 78% 0.8 mph ESE1.3 kmh ESE 0.8 mph1.3 kmh 30.14 in1020.7 mb 0.00 in0.0 mm 0.00 in0.0 mm 0.00 in0.0 mm
07:49 PM 59.5°F15.3°C 59.5°F15.3°C 78% 1.2 mph NE1.9 kmh NE 1.2 mph1.9 kmh 30.14 in1020.7 mb 0.00 in0.0 mm 0.00 in0.0 mm 0.00 in0.0 mm
07:52 PM 59.3°F15.2°C 59.4°F15.2°C 77% 1.2 mph ESE1.9 kmh ESE 1.2 mph1.9 kmh 30.14 in1020.7 mb 0.00 in0.0 mm 0.00 in0.0 mm 0.00 in0.0 mm
07:55 PM 59.5°F15.3°C 59.5°F15.3°C 77% 0.8 mph ESE1.3 kmh ESE 0.8 mph1.3 kmh 30.14 in1020.7 mb 0.00 in0.0 mm 0.00 in0.0 mm 0.00 in0.0 mm
08:01 PM 59.3°F15.2°C 59.7°F15.4°C 78% 1.9 mph NE3.1 kmh NE 1.9 mph3.1 kmh 30.14 in1020.7 mb 0.00 in0.0 mm 0.00 in0.0 mm 0.00 in0.0 mm
08:04 PM 59.3°F15.2°C 59.6°F15.3°C 77% 4.0 mph NE6.4 kmh NE 4.0 mph6.4 kmh 30.13 in1020.3 mb 0.00 in0.0 mm 0.00 in0.0 mm 0.00 in0.0 mm
08:07 PM 59.3°F15.2°C 59.2°F15.1°C 77% 0.8 mph ENE1.3 kmh ENE 0.8 mph1.3 kmh 30.14 in1020.7 mb 0.00 in0.0 mm 0.00 in0.0 mm 0.00 in0.0 mm
08:10 PM 59.3°F15.2°C 59.4°F15.2°C 77% 0.8 mph SSW1.3 kmh SSW 0.8 mph1.3 kmh 30.14 in1020.7 mb 0.00 in0.0 mm 0.00 in0.0 mm 0.00 in0.0 mm
08:13 PM 59.3°F15.2°C 59.5°F15.3°C 77% Calm Calm -- 30.14 in1020.7 mb 0.00 in0.0 mm 0.00 in0.0 mm 0.00 in0.0 mm
08:16 PM 59.3°F15.2°C 59.3°F15.2°C 77% 0.4 mph SSE0.6 kmh SSE 0.4 mph0.6 kmh 30.14 in1020.7 mb 0.00 in0.0 mm 0.00 in0.0 mm 0.00 in0.0 mm
08:19 PM 59.3°F15.2°C 59.7°F15.4°C 78% Calm Calm -- 30.13 in1020.3 mb 0.00 in0.0 mm 0.00 in0.0 mm 0.00 in0.0 mm
08:22 PM 59.3°F15.2°C 59.4°F15.2°C 77% Calm Calm -- 30.13 in1020.3 mb 0.00 in0.0 mm 0.00 in0.0 mm 0.00 in0.0 mm
08:25 PM 59.3°F15.2°C 59.5°F15.3°C 77% Calm Calm -- 30.13 in1020.3 mb 0.00 in0.0 mm 0.00 in0.0 mm 0.00 in0.0 mm
08:34 PM 59.1°F15.1°C 59.6°F15.3°C 77% Calm Calm -- 30.13 in1020.3 mb 0.00 in0.0 mm 0.00 in0.0 mm 0.00 in0.0 mm
08:37 PM 59.2°F15.1°C 59.4°F15.2°C 77% 0.8 mph E1.3 kmh E 0.8 mph1.3 kmh 30.13 in1020.3 mb 0.00 in0.0 mm 0.00 in0.0 mm 0.00 in0.0 mm
08:40 PM 59.1°F15.1°C 59.1°F15.1°C 76% 2.8 mph NNE4.5 kmh NNE 2.9 mph4.7 kmh 30.13 in1020.3 mb 0.00 in0.0 mm 0.00 in0.0 mm 0.00 in0.0 mm
08:43 PM 59.2°F15.1°C 59.6°F15.3°C 77% 3.6 mph W5.8 kmh W 3.6 mph5.8 kmh 30.13 in1020.3 mb 0.00 in0.0 mm 0.00 in0.0 mm 0.00 in0.0 mm
08:46 PM 59.1°F15.1°C 59.2°F15.1°C 77% 0.4 mph WNW0.6 kmh WNW 0.4 mph0.6 kmh 30.13 in1020.3 mb 0.00 in0.0 mm 0.00 in0.0 mm 0.00 in0.0 mm
08:49 PM 59.2°F15.1°C 59.2°F15.1°C 77% 4.0 mph SE6.4 kmh SE 4.1 mph6.6 kmh 30.13 in1020.3 mb 0.00 in0.0 mm 0.00 in0.0 mm 0.00 in0.0 mm
08:52 PM 59.2°F15.1°C 59.4°F15.2°C 77% 0.4 mph E0.6 kmh E 0.4 mph0.6 kmh 30.12 in1020.0 mb 0.00 in0.0 mm 0.00 in0.0 mm 0.00 in0.0 mm
08:55 PM 59.2°F15.1°C 59.3°F15.2°C 78% 1.6 mph SE2.6 kmh SE 1.6 mph2.6 kmh 30.12 in1020.0 mb 0.00 in0.0 mm 0.00 in0.0 mm 0.00 in0.0 mm
08:58 PM 59.1°F15.1°C 59.3°F15.2°C 77% 0.8 mph W1.3 kmh W 0.8 mph1.3 kmh 30.12 in1020.0 mb 0.00 in0.0 mm 0.00 in0.0 mm 0.00 in0.0 mm
09:01 PM 59.1°F15.1°C 59.6°F15.3°C 78% Calm Calm -- 30.13 in1020.3 mb 0.00 in0.0 mm 0.00 in0.0 mm 0.00 in0.0 mm
09:04 PM 59.2°F15.1°C 59.4°F15.2°C 77% Calm Calm -- 30.12 in1020.0 mb 0.00 in0.0 mm 0.00 in0.0 mm 0.00 in0.0 mm
09:07 PM 59.1°F15.1°C 59.4°F15.2°C 78% 1.2 mph 1.9 kmh 1.2 mph1.9 kmh 30.12 in1020.0 mb 0.00 in0.0 mm 0.00 in0.0 mm 0.00 in0.0 mm
09:10 PM 59.1°F15.1°C 59.5°F15.3°C 77% Calm Calm -- 30.12 in1020.0 mb 0.00 in0.0 mm 0.00 in0.0 mm 0.00 in0.0 mm
09:13 PM 59.2°F15.1°C 60.0°F15.6°C 79% 1.9 mph NNW3.1 kmh NNW 1.9 mph3.1 kmh 30.12 in1020.0 mb 0.00 in0.0 mm 0.00 in0.0 mm 0.00 in0.0 mm
09:16 PM 59.1°F15.1°C 59.5°F15.3°C 78% Calm Calm -- 30.12 in1020.0 mb 0.00 in0.0 mm 0.00 in0.0 mm 0.00 in0.0 mm
09:19 PM 59.2°F15.1°C 59.7°F15.4°C 78% Calm Calm -- 30.11 in1019.6 mb 0.00 in0.0 mm 0.00 in0.0 mm 0.00 in0.0 mm
09:22 PM 59.0°F15.0°C 59.3°F15.2°C 77% 0.4 mph NNW0.6 kmh NNW 0.4 mph0.6 kmh 30.11 in1019.6 mb 0.00 in0.0 mm 0.00 in0.0 mm 0.00 in0.0 mm
09:25 PM 59.0°F15.0°C 59.5°F15.3°C 78% Calm Calm -- 30.11 in1019.6 mb 0.00 in0.0 mm 0.00 in0.0 mm 0.00 in0.0 mm
09:28 PM 59.0°F15.0°C 59.3°F15.2°C 78% 0.4 mph NE0.6 kmh NE 0.4 mph0.6 kmh 30.12 in1020.0 mb 0.00 in0.0 mm 0.00 in0.0 mm 0.00 in0.0 mm
09:31 PM 59.1°F15.1°C 59.8°F15.4°C 79% Calm Calm -- 30.12 in1020.0 mb 0.00 in0.0 mm 0.00 in0.0 mm 0.00 in0.0 mm
09:34 PM 59.0°F15.0°C 59.7°F15.4°C 78% 0.4 mph NNW0.6 kmh NNW 0.4 mph0.6 kmh 30.12 in1020.0 mb 0.00 in0.0 mm 0.00 in0.0 mm 0.00 in0.0 mm
09:37 PM 59.1°F15.1°C 59.4°F15.2°C 78% 4.0 mph NE6.4 kmh NE 4.1 mph6.6 kmh 30.11 in1019.6 mb 0.00 in0.0 mm 0.00 in0.0 mm 0.00 in0.0 mm
09:40 PM 59.1°F15.1°C 59.9°F15.5°C 80% Calm Calm -- 30.11 in1019.6 mb 0.00 in0.0 mm 0.00 in0.0 mm 0.00 in0.0 mm
09:43 PM 59.0°F15.0°C 59.9°F15.5°C 80% Calm Calm -- 30.11 in1019.6 mb 0.00 in0.0 mm 0.00 in0.0 mm 0.00 in0.0 mm
09:46 PM 59.0°F15.0°C 60.0°F15.6°C 80% 5.7 mph SE9.2 kmh SE 5.7 mph9.2 kmh 30.11 in1019.6 mb 0.00 in0.0 mm 0.00 in0.0 mm 0.00 in0.0 mm
09:49 PM 58.9°F14.9°C 60.0°F15.6°C 81% 3.6 mph SE5.8 kmh SE 3.7 mph6.0 kmh 30.12 in1020.0 mb 0.00 in0.0 mm 0.00 in0.0 mm 0.00 in0.0 mm
09:52 PM 59.1°F15.1°C 60.1°F15.6°C 81% 3.8 mph SE6.1 kmh SE 3.9 mph6.3 kmh 30.12 in1020.0 mb 0.00 in0.0 mm 0.00 in0.0 mm 0.00 in0.0 mm
09:55 PM 58.4°F14.7°C 59.8°F15.4°C 81% 0.4 mph NE0.6 kmh NE 0.4 mph0.6 kmh 30.12 in1020.0 mb 0.00 in0.0 mm 0.00 in0.0 mm 0.00 in0.0 mm
09:58 PM 58.8°F14.9°C 60.0°F15.6°C 81% 2.4 mph NNW3.9 kmh NNW 2.4 mph3.9 kmh 30.13 in1020.3 mb 0.00 in0.0 mm 0.00 in0.0 mm 0.00 in0.0 mm
10:01 PM 58.8°F14.9°C 59.8°F15.4°C 81% 0.4 mph NNW0.6 kmh NNW 0.4 mph0.6 kmh 30.12 in1020.0 mb 0.00 in0.0 mm 0.00 in0.0 mm 0.00 in0.0 mm
10:04 PM 58.8°F14.9°C 60.0°F15.6°C 81% Calm Calm -- 30.11 in1019.6 mb 0.00 in0.0 mm 0.00 in0.0 mm 0.00 in0.0 mm
10:07 PM 58.8°F14.9°C 60.1°F15.6°C 81% 2.8 mph ESE4.5 kmh ESE 2.9 mph4.7 kmh 30.12 in1020.0 mb 0.00 in0.0 mm 0.00 in0.0 mm 0.00 in0.0 mm
10:10 PM 58.3°F14.6°C 59.7°F15.4°C 81% 0.8 mph ESE1.3 kmh ESE 0.8 mph1.3 kmh 30.12 in1020.0 mb 0.00 in0.0 mm 0.00 in0.0 mm 0.00 in0.0 mm
10:13 PM 58.8°F14.9°C 59.9°F15.5°C 81% Calm Calm -- 30.12 in1020.0 mb 0.00 in0.0 mm 0.00 in0.0 mm 0.00 in0.0 mm
10:16 PM 58.8°F14.9°C 60.0°F15.6°C 81% 0.4 mph ESE0.6 kmh ESE 0.4 mph0.6 kmh 30.11 in1019.6 mb 0.00 in0.0 mm 0.00 in0.0 mm 0.00 in0.0 mm
10:19 PM 58.9°F14.9°C 59.8°F15.4°C 80% 0.4 mph NE0.6 kmh NE 0.4 mph0.6 kmh 30.11 in1019.6 mb 0.00 in0.0 mm 0.00 in0.0 mm 0.00 in0.0 mm
10:22 PM 58.8°F14.9°C 60.1°F15.6°C 81% Calm Calm -- 30.11 in1019.6 mb 0.00 in0.0 mm 0.00 in0.0 mm 0.00 in0.0 mm
10:25 PM 58.8°F14.9°C 59.4°F15.2°C 80% Calm Calm -- 30.11 in1019.6 mb 0.00 in0.0 mm 0.00 in0.0 mm 0.00 in0.0 mm
10:28 PM 58.8°F14.9°C 59.6°F15.3°C 80% Calm Calm -- 30.11 in1019.6 mb 0.00 in0.0 mm 0.00 in0.0 mm 0.00 in0.0 mm
10:31 PM 58.8°F14.9°C 59.7°F15.4°C 80% Calm Calm -- 30.11 in1019.6 mb 0.00 in0.0 mm 0.00 in0.0 mm 0.00 in0.0 mm
10:34 PM 58.7°F14.8°C 59.7°F15.4°C 80% Calm Calm -- 30.11 in1019.6 mb 0.00 in0.0 mm 0.00 in0.0 mm 0.00 in0.0 mm
10:37 PM 58.8°F14.9°C 59.8°F15.4°C 80% Calm Calm -- 30.11 in1019.6 mb 0.00 in0.0 mm 0.00 in0.0 mm 0.00 in0.0 mm
10:40 PM 58.8°F14.9°C 59.6°F15.3°C 80% Calm Calm -- 30.11 in1019.6 mb 0.00 in0.0 mm 0.00 in0.0 mm 0.00 in0.0 mm
10:43 PM 58.7°F14.8°C 59.8°F15.4°C 80% Calm Calm -- 30.10 in1019.3 mb 0.00 in0.0 mm 0.00 in0.0 mm 0.00 in0.0 mm
10:46 PM 58.6°F14.8°C 59.8°F15.4°C 80% Calm Calm -- 30.10 in1019.3 mb 0.00 in0.0 mm 0.00 in0.0 mm 0.00 in0.0 mm
10:49 PM 58.6°F14.8°C 59.8°F15.4°C 80% Calm Calm -- 30.10 in1019.3 mb 0.00 in0.0 mm 0.00 in0.0 mm 0.00 in0.0 mm
10:52 PM 58.6°F14.8°C 59.7°F15.4°C 80% Calm Calm -- 30.10 in1019.3 mb 0.00 in0.0 mm 0.00 in0.0 mm 0.00 in0.0 mm
10:55 PM 58.1°F14.5°C 59.6°F15.3°C 80% Calm Calm -- 30.10 in1019.3 mb 0.00 in0.0 mm 0.00 in0.0 mm 0.00 in0.0 mm
10:58 PM 58.9°F14.9°C 59.5°F15.3°C 80% Calm Calm -- 30.10 in1019.3 mb 0.00 in0.0 mm 0.00 in0.0 mm 0.00 in0.0 mm
11:01 PM 58.7°F14.8°C 59.5°F15.3°C 80% Calm Calm -- 30.10 in1019.3 mb 0.00 in0.0 mm 0.00 in0.0 mm 0.00 in0.0 mm
11:04 PM 58.7°F14.8°C 59.8°F15.4°C 80% Calm Calm -- 30.10 in1019.3 mb 0.00 in0.0 mm 0.00 in0.0 mm 0.00 in0.0 mm
11:07 PM 58.6°F14.8°C 59.5°F15.3°C 80% Calm Calm -- 30.10 in1019.3 mb 0.00 in0.0 mm 0.00 in0.0 mm 0.00 in0.0 mm
11:10 PM 58.7°F14.8°C 59.7°F15.4°C 80% 0.4 mph ESE0.6 kmh ESE 0.4 mph0.6 kmh 30.10 in1019.3 mb 0.00 in0.0 mm 0.00 in0.0 mm 0.00 in0.0 mm
11:13 PM 58.9°F14.9°C 59.8°F15.4°C 80% Calm Calm -- 30.10 in1019.3 mb 0.00 in0.0 mm 0.00 in0.0 mm 0.00 in0.0 mm
11:16 PM 58.8°F14.9°C 59.7°F15.4°C 81% Calm Calm -- 30.09 in1019.0 mb 0.00 in0.0 mm 0.00 in0.0 mm 0.00 in0.0 mm
11:19 PM 58.8°F14.9°C 59.6°F15.3°C 81% Calm Calm -- 30.10 in1019.3 mb 0.00 in0.0 mm 0.00 in0.0 mm 0.00 in0.0 mm
11:22 PM 58.9°F14.9°C 59.7°F15.4°C 81% Calm Calm -- 30.10 in1019.3 mb 0.00 in0.0 mm 0.00 in0.0 mm 0.00 in0.0 mm
11:25 PM 59.1°F15.1°C 59.4°F15.2°C 80% Calm Calm -- 30.09 in1019.0 mb 0.00 in0.0 mm 0.00 in0.0 mm 0.00 in0.0 mm
11:28 PM 59.0°F15.0°C 59.9°F15.5°C 81% 0.4 mph NE0.6 kmh NE 0.4 mph0.6 kmh 30.09 in1019.0 mb 0.00 in0.0 mm 0.00 in0.0 mm 0.00 in0.0 mm
11:31 PM 59.0°F15.0°C 59.4°F15.2°C 80% 0.8 mph 1.3 kmh 0.8 mph1.3 kmh 30.09 in1019.0 mb 0.00 in0.0 mm 0.00 in0.0 mm 0.00 in0.0 mm
11:34 PM 59.0°F15.0°C 59.8°F15.4°C 80% Calm Calm -- 30.08 in1018.6 mb 0.00 in0.0 mm 0.00 in0.0 mm 0.00 in0.0 mm
11:37 PM 59.0°F15.0°C 59.8°F15.4°C 81% Calm Calm -- 30.08 in1018.6 mb 0.00 in0.0 mm 0.00 in0.0 mm 0.00 in0.0 mm
11:40 PM 58.8°F14.9°C 59.8°F15.4°C 81% Calm Calm -- 30.08 in1018.6 mb 0.00 in0.0 mm 0.00 in0.0 mm 0.00 in0.0 mm
11:43 PM 59.1°F15.1°C 59.7°F15.4°C 81% Calm Calm -- 30.08 in1018.6 mb 0.00 in0.0 mm 0.00 in0.0 mm 0.00 in0.0 mm
11:46 PM 59.1°F15.1°C 60.1°F15.6°C 81% Calm Calm -- 30.08 in1018.6 mb 0.00 in0.0 mm 0.00 in0.0 mm 0.00 in0.0 mm
11:49 PM 59.1°F15.1°C 59.9°F15.5°C 81% Calm Calm -- 30.08 in1018.6 mb 0.00 in0.0 mm 0.00 in0.0 mm 0.00 in0.0 mm
11:52 PM 59.2°F15.1°C 60.1°F15.6°C 82% Calm Calm -- 30.08 in1018.6 mb 0.00 in0.0 mm 0.00 in0.0 mm 0.00 in0.0 mm
11:55 PM 59.1°F15.1°C 60.3°F15.7°C 82% Calm Calm -- 30.07 in1018.3 mb 0.00 in0.0 mm 0.00 in0.0 mm 0.00 in0.0 mm
11:58 PM 59.2°F15.1°C 60.0°F15.6°C 81% Calm Calm -- 30.08 in1018.6 mb 0.00 in0.0 mm 0.00 in0.0 mm 0.00 in0.0 mm